PWSweather.com
Personal Weather Stations
Station Observations
KMILAPEE3
Lapeer Michigan, Lapeer, MI 48446

Lapeer MichiganLapeer, MI 48446

Lat: 43.057, Lon: -83.362

Elevation: 897

Station Type: Oregon Scientific WMR-968

Latest ConditionsUpdated 11:27:20 AM EDT Sunday, May 1, 2016
Currently Today's Max Today's Min Today's Average
Temperature 47.1°F8.4°C 47.1°F8.4°C 43.7°F6.5°C 44.9°F7.2°C
Dew Point 47.1°F8.4°C 47.1°F8.4°C 39.4°F4.1°C 44.1°F6.7°C
Winds 6.4 mph ENE10.3 kmh ENE 10.2 mph ENE16.4 kmh ENE - 5.8 mph 9.3 kmh
Wind Gusts 11.7 mph18.8 kmh 15.2 mph24.5 kmh - -
Humidity 100% 100% 85% 97%
Pressure 29.03 in983.1 mb 29.03 in983.1 mb 28.97 in981.0 mb -
Hour Temp Dew Point Humidity Winds Wind Gusts Pressure Precip Precip Rate Daily Precip Total
11:27 AM 47.1°F8.4°C 47.1°F8.4°C 100% 6.4 mph ENE10.3 kmh ENE 11.7 mph18.8 kmh 29.03 in983.1 mb 0.00 in0.0 mm 0.00 in0.0 mm 0.00 in0.0 mm
11:26 AM 47.1°F8.4°C 47.1°F8.4°C 100% 6.7 mph ENE10.8 kmh ENE 12.0 mph19.3 kmh 29.03 in983.1 mb 0.00 in0.0 mm 0.00 in0.0 mm 0.00 in0.0 mm
11:25 AM 47.1°F8.4°C 47.1°F8.4°C 100% 7.0 mph NE11.3 kmh NE 12.0 mph19.3 kmh 29.03 in983.1 mb 0.00 in0.0 mm 0.00 in0.0 mm 0.00 in0.0 mm
11:24 AM 47.1°F8.4°C 47.1°F8.4°C 100% 6.7 mph ENE10.8 kmh ENE 12.0 mph19.3 kmh 29.03 in983.1 mb 0.00 in0.0 mm 0.00 in0.0 mm 0.00 in0.0 mm
11:22 AM 47.1°F8.4°C 47.1°F8.4°C 100% 7.1 mph ENE11.4 kmh ENE 12.6 mph20.3 kmh 29.03 in983.1 mb 0.00 in0.0 mm 0.00 in0.0 mm 0.00 in0.0 mm
11:21 AM 47.1°F8.4°C 47.1°F8.4°C 100% 7.2 mph NE11.6 kmh NE 12.6 mph20.3 kmh 29.03 in983.1 mb 0.00 in0.0 mm 0.00 in0.0 mm 0.00 in0.0 mm
11:20 AM 47.1°F8.4°C 47.1°F8.4°C 100% 6.7 mph NE10.8 kmh NE 12.6 mph20.3 kmh 29.03 in983.1 mb 0.00 in0.0 mm 0.00 in0.0 mm 0.00 in0.0 mm
11:19 AM 47.1°F8.4°C 47.1°F8.4°C 100% 7.4 mph ENE11.9 kmh ENE 12.6 mph20.3 kmh 29.03 in983.1 mb 0.00 in0.0 mm 0.00 in0.0 mm 0.00 in0.0 mm
11:18 AM 47.1°F8.4°C 47.1°F8.4°C 100% 7.7 mph ENE12.4 kmh ENE 12.6 mph20.3 kmh 29.03 in983.1 mb 0.00 in0.0 mm 0.00 in0.0 mm 0.00 in0.0 mm
11:17 AM 47.1°F8.4°C 47.1°F8.4°C 100% 6.7 mph ENE10.8 kmh ENE 12.6 mph20.3 kmh 29.03 in983.1 mb 0.00 in0.0 mm 0.00 in0.0 mm 0.00 in0.0 mm
11:16 AM 47.1°F8.4°C 47.1°F8.4°C 100% 6.6 mph ENE10.6 kmh ENE 12.6 mph20.3 kmh 29.03 in983.1 mb 0.00 in0.0 mm 0.00 in0.0 mm 0.00 in0.0 mm
11:15 AM 47.1°F8.4°C 47.1°F8.4°C 100% 7.0 mph ENE11.3 kmh ENE 12.6 mph20.3 kmh 29.03 in983.1 mb 0.00 in0.0 mm 0.00 in0.0 mm 0.00 in0.0 mm
11:14 AM 47.1°F8.4°C 47.1°F8.4°C 100% 7.4 mph ENE11.9 kmh ENE 12.6 mph20.3 kmh 29.03 in983.1 mb 0.00 in0.0 mm 0.00 in0.0 mm 0.00 in0.0 mm
11:13 AM 47.1°F8.4°C 47.1°F8.4°C 100% 7.6 mph NE12.2 kmh NE 11.7 mph18.8 kmh 29.03 in983.1 mb 0.00 in0.0 mm 0.00 in0.0 mm 0.00 in0.0 mm
11:12 AM 47.1°F8.4°C 47.1°F8.4°C 100% 7.5 mph NE12.1 kmh NE 11.7 mph18.8 kmh 29.03 in983.1 mb 0.00 in0.0 mm 0.00 in0.0 mm 0.00 in0.0 mm
11:11 AM 47.1°F8.4°C 47.1°F8.4°C 100% 6.8 mph NE10.9 kmh NE 12.0 mph19.3 kmh 29.03 in983.1 mb 0.00 in0.0 mm 0.00 in0.0 mm 0.00 in0.0 mm
11:10 AM 47.1°F8.4°C 47.1°F8.4°C 100% 6.4 mph NE10.3 kmh NE 12.6 mph20.3 kmh 29.03 in983.1 mb 0.00 in0.0 mm 0.00 in0.0 mm 0.00 in0.0 mm
11:09 AM 47.1°F8.4°C 47.1°F8.4°C 100% 6.6 mph NE10.6 kmh NE 12.6 mph20.3 kmh 29.03 in983.1 mb 0.00 in0.0 mm 0.00 in0.0 mm 0.00 in0.0 mm
11:08 AM 47.1°F8.4°C 47.1°F8.4°C 100% 6.9 mph ENE11.1 kmh ENE 12.6 mph20.3 kmh 29.03 in983.1 mb 0.00 in0.0 mm 0.00 in0.0 mm 0.00 in0.0 mm
11:07 AM 46.9°F8.3°C 46.9°F8.3°C 100% 7.1 mph ENE11.4 kmh ENE 12.6 mph20.3 kmh 29.03 in983.1 mb 0.00 in0.0 mm 0.00 in0.0 mm 0.00 in0.0 mm
11:06 AM 46.9°F8.3°C 46.9°F8.3°C 100% 7.4 mph ENE11.9 kmh ENE 12.6 mph20.3 kmh 29.03 in983.1 mb 0.00 in0.0 mm 0.00 in0.0 mm 0.00 in0.0 mm
11:05 AM 46.9°F8.3°C 46.9°F8.3°C 100% 8.2 mph NE13.2 kmh NE 12.6 mph20.3 kmh 29.03 in983.1 mb 0.00 in0.0 mm 0.00 in0.0 mm 0.00 in0.0 mm
11:04 AM 47.1°F8.4°C 47.1°F8.4°C 100% 8.3 mph NE13.4 kmh NE 12.6 mph20.3 kmh 29.03 in983.1 mb 0.00 in0.0 mm 0.00 in0.0 mm 0.00 in0.0 mm
11:03 AM 46.9°F8.3°C 46.9°F8.3°C 100% 7.8 mph NE12.6 kmh NE 12.6 mph20.3 kmh 29.03 in983.1 mb 0.00 in0.0 mm 0.00 in0.0 mm 0.00 in0.0 mm
11:02 AM 46.9°F8.3°C 46.9°F8.3°C 100% 8.2 mph NE13.2 kmh NE 12.6 mph20.3 kmh 29.03 in983.1 mb 0.00 in0.0 mm 0.00 in0.0 mm 0.00 in0.0 mm
11:01 AM 46.9°F8.3°C 46.9°F8.3°C 100% 8.1 mph NE13.0 kmh NE 12.6 mph20.3 kmh 29.03 in983.1 mb 0.00 in0.0 mm 0.00 in0.0 mm 0.00 in0.0 mm
11:00 AM 46.9°F8.3°C 46.9°F8.3°C 100% 7.4 mph NE11.9 kmh NE 12.0 mph19.3 kmh 29.03 in983.1 mb 0.00 in0.0 mm 0.00 in0.0 mm 0.00 in0.0 mm
10:59 AM 46.9°F8.3°C 46.9°F8.3°C 100% 6.7 mph NE10.8 kmh NE 12.0 mph19.3 kmh 29.03 in983.1 mb 0.00 in0.0 mm 0.00 in0.0 mm 0.00 in0.0 mm
10:58 AM 46.9°F8.3°C 46.9°F8.3°C 100% 6.0 mph NE9.7 kmh NE 12.0 mph19.3 kmh 29.03 in983.1 mb 0.00 in0.0 mm 0.00 in0.0 mm 0.00 in0.0 mm
10:57 AM 46.9°F8.3°C 46.9°F8.3°C 100% 7.2 mph NE11.6 kmh NE 12.0 mph19.3 kmh 29.03 in983.1 mb 0.00 in0.0 mm 0.00 in0.0 mm 0.00 in0.0 mm
10:56 AM 46.9°F8.3°C 46.9°F8.3°C 100% 8.6 mph ENE13.8 kmh ENE 12.0 mph19.3 kmh 29.03 in983.1 mb 0.00 in0.0 mm 0.00 in0.0 mm 0.00 in0.0 mm
10:55 AM 46.9°F8.3°C 46.9°F8.3°C 100% 8.7 mph NE14.0 kmh NE 12.0 mph19.3 kmh 29.03 in983.1 mb 0.00 in0.0 mm 0.00 in0.0 mm 0.00 in0.0 mm
10:54 AM 46.9°F8.3°C 46.9°F8.3°C 100% 7.3 mph NE11.7 kmh NE 12.0 mph19.3 kmh 29.03 in983.1 mb 0.00 in0.0 mm 0.00 in0.0 mm 0.00 in0.0 mm
10:53 AM 46.8°F8.2°C 46.8°F8.2°C 100% 6.9 mph NE11.1 kmh NE 12.0 mph19.3 kmh 29.03 in983.1 mb 0.00 in0.0 mm 0.00 in0.0 mm 0.00 in0.0 mm
10:52 AM 46.8°F8.2°C 46.8°F8.2°C 100% 7.0 mph NE11.3 kmh NE 12.0 mph19.3 kmh 29.03 in983.1 mb 0.00 in0.0 mm 0.00 in0.0 mm 0.00 in0.0 mm
10:51 AM 46.8°F8.2°C 46.8°F8.2°C 100% 6.7 mph NE10.8 kmh NE 12.6 mph20.3 kmh 29.03 in983.1 mb 0.00 in0.0 mm 0.00 in0.0 mm 0.00 in0.0 mm
10:50 AM 46.8°F8.2°C 46.8°F8.2°C 100% 7.0 mph NE11.3 kmh NE 12.6 mph20.3 kmh 29.03 in983.1 mb 0.00 in0.0 mm 0.00 in0.0 mm 0.00 in0.0 mm
10:49 AM 46.9°F8.3°C 46.9°F8.3°C 100% 7.4 mph NE11.9 kmh NE 12.6 mph20.3 kmh 29.03 in983.1 mb 0.00 in0.0 mm 0.00 in0.0 mm 0.00 in0.0 mm
10:48 AM 46.8°F8.2°C 46.8°F8.2°C 100% 7.4 mph NE11.9 kmh NE 12.6 mph20.3 kmh 29.03 in983.1 mb 0.00 in0.0 mm 0.00 in0.0 mm 0.00 in0.0 mm
10:47 AM 46.8°F8.2°C 46.8°F8.2°C 100% 7.7 mph NE12.4 kmh NE 12.6 mph20.3 kmh 29.03 in983.1 mb 0.00 in0.0 mm 0.00 in0.0 mm 0.00 in0.0 mm
10:46 AM 46.8°F8.2°C 46.8°F8.2°C 100% 8.0 mph NE12.9 kmh NE 12.6 mph20.3 kmh 29.03 in983.1 mb 0.00 in0.0 mm 0.00 in0.0 mm 0.00 in0.0 mm
10:45 AM 46.8°F8.2°C 46.8°F8.2°C 100% 7.3 mph NE11.7 kmh NE 12.6 mph20.3 kmh 29.03 in983.1 mb 0.00 in0.0 mm 0.00 in0.0 mm 0.00 in0.0 mm
10:44 AM 46.8°F8.2°C 46.8°F8.2°C 100% 7.3 mph NE11.7 kmh NE 12.6 mph20.3 kmh 29.03 in983.1 mb 0.00 in0.0 mm 0.00 in0.0 mm 0.00 in0.0 mm
10:43 AM 46.8°F8.2°C 46.8°F8.2°C 100% 6.7 mph NE10.8 kmh NE 12.6 mph20.3 kmh 29.03 in983.1 mb 0.00 in0.0 mm 0.00 in0.0 mm 0.00 in0.0 mm
10:42 AM 46.8°F8.2°C 46.8°F8.2°C 100% 5.3 mph NE8.5 kmh NE 12.6 mph20.3 kmh 29.03 in983.1 mb 0.00 in0.0 mm 0.00 in0.0 mm 0.00 in0.0 mm
10:40 AM 46.8°F8.2°C 46.8°F8.2°C 100% 6.2 mph ENE10.0 kmh ENE 12.6 mph20.3 kmh 29.03 in983.1 mb 0.00 in0.0 mm 0.00 in0.0 mm 0.00 in0.0 mm
10:39 AM 46.8°F8.2°C 46.8°F8.2°C 100% 7.8 mph ENE12.6 kmh ENE 12.6 mph20.3 kmh 29.03 in983.1 mb 0.00 in0.0 mm 0.00 in0.0 mm 0.00 in0.0 mm
10:38 AM 46.8°F8.2°C 46.8°F8.2°C 100% 8.3 mph NE13.4 kmh NE 12.6 mph20.3 kmh 29.03 in983.1 mb 0.00 in0.0 mm 0.00 in0.0 mm 0.00 in0.0 mm
10:37 AM 46.8°F8.2°C 46.8°F8.2°C 100% 7.9 mph NE12.7 kmh NE 12.6 mph20.3 kmh 29.03 in983.1 mb 0.00 in0.0 mm 0.00 in0.0 mm 0.00 in0.0 mm
10:36 AM 46.6°F8.1°C 46.6°F8.1°C 100% 7.7 mph NE12.4 kmh NE 12.6 mph20.3 kmh 29.03 in983.1 mb 0.00 in0.0 mm 0.00 in0.0 mm 0.00 in0.0 mm
10:35 AM 46.6°F8.1°C 46.6°F8.1°C 100% 8.1 mph NE13.0 kmh NE 12.6 mph20.3 kmh 29.03 in983.1 mb 0.00 in0.0 mm 0.00 in0.0 mm 0.00 in0.0 mm
10:34 AM 46.6°F8.1°C 46.6°F8.1°C 100% 8.6 mph NE13.8 kmh NE 12.6 mph20.3 kmh 29.03 in983.1 mb 0.00 in0.0 mm 0.00 in0.0 mm 0.00 in0.0 mm
10:33 AM 46.6°F8.1°C 46.6°F8.1°C 100% 8.2 mph NE13.2 kmh NE 12.6 mph20.3 kmh 29.03 in983.1 mb 0.00 in0.0 mm 0.00 in0.0 mm 0.00 in0.0 mm
10:32 AM 46.6°F8.1°C 46.6°F8.1°C 100% 7.7 mph ENE12.4 kmh ENE 12.6 mph20.3 kmh 29.03 in983.1 mb 0.00 in0.0 mm 0.00 in0.0 mm 0.00 in0.0 mm
10:31 AM 46.6°F8.1°C 46.6°F8.1°C 100% 7.7 mph NE12.4 kmh NE 12.6 mph20.3 kmh 29.03 in983.1 mb 0.00 in0.0 mm 0.00 in0.0 mm 0.00 in0.0 mm
10:30 AM 46.8°F8.2°C 46.8°F8.2°C 100% 8.5 mph NE13.7 kmh NE 12.6 mph20.3 kmh 29.03 in983.1 mb 0.00 in0.0 mm 0.00 in0.0 mm 0.00 in0.0 mm
10:29 AM 46.8°F8.2°C 46.8°F8.2°C 100% 8.2 mph NE13.2 kmh NE 12.6 mph20.3 kmh 29.03 in983.1 mb 0.00 in0.0 mm 0.00 in0.0 mm 0.00 in0.0 mm
10:28 AM 46.8°F8.2°C 46.8°F8.2°C 100% 7.1 mph NE11.4 kmh NE 12.0 mph19.3 kmh 29.03 in983.1 mb 0.00 in0.0 mm 0.00 in0.0 mm 0.00 in0.0 mm
10:27 AM 46.8°F8.2°C 46.8°F8.2°C 100% 7.1 mph NE11.4 kmh NE 11.7 mph18.8 kmh 29.03 in983.1 mb 0.00 in0.0 mm 0.00 in0.0 mm 0.00 in0.0 mm
10:26 AM 46.6°F8.1°C 46.6°F8.1°C 100% 6.3 mph NE10.1 kmh NE 11.0 mph17.7 kmh 29.03 in983.1 mb 0.00 in0.0 mm 0.00 in0.0 mm 0.00 in0.0 mm
10:25 AM 46.6°F8.1°C 46.6°F8.1°C 100% 6.0 mph ENE9.7 kmh ENE 11.0 mph17.7 kmh 29.03 in983.1 mb 0.00 in0.0 mm 0.00 in0.0 mm 0.00 in0.0 mm
10:24 AM 46.4°F8.0°C 46.4°F8.0°C 100% 6.1 mph NE9.8 kmh NE 11.7 mph18.8 kmh 29.03 in983.1 mb 0.00 in0.0 mm 0.00 in0.0 mm 0.00 in0.0 mm
10:23 AM 46.6°F8.1°C 46.6°F8.1°C 100% 6.3 mph NE10.1 kmh NE 12.0 mph19.3 kmh 29.03 in983.1 mb 0.00 in0.0 mm 0.00 in0.0 mm 0.00 in0.0 mm
10:22 AM 46.4°F8.0°C 46.4°F8.0°C 100% 6.1 mph NE9.8 kmh NE 12.0 mph19.3 kmh 29.03 in983.1 mb 0.00 in0.0 mm 0.00 in0.0 mm 0.00 in0.0 mm
10:21 AM 46.4°F8.0°C 46.4°F8.0°C 100% 6.0 mph NE9.7 kmh NE 12.0 mph19.3 kmh 29.03 in983.1 mb 0.00 in0.0 mm 0.00 in0.0 mm 0.00 in0.0 mm
10:20 AM 46.4°F8.0°C 46.4°F8.0°C 100% 6.5 mph NE10.5 kmh NE 12.0 mph19.3 kmh 29.03 in983.1 mb 0.00 in0.0 mm 0.00 in0.0 mm 0.00 in0.0 mm
10:19 AM 46.4°F8.0°C 46.4°F8.0°C 100% 6.9 mph NE11.1 kmh NE 12.6 mph20.3 kmh 29.03 in983.1 mb 0.00 in0.0 mm 0.00 in0.0 mm 0.00 in0.0 mm
10:18 AM 46.4°F8.0°C 46.4°F8.0°C 100% 6.7 mph NE10.8 kmh NE 12.6 mph20.3 kmh 29.03 in983.1 mb 0.00 in0.0 mm 0.00 in0.0 mm 0.00 in0.0 mm
10:17 AM 46.4°F8.0°C 46.4°F8.0°C 100% 7.2 mph NE11.6 kmh NE 12.6 mph20.3 kmh 29.03 in983.1 mb 0.00 in0.0 mm 0.00 in0.0 mm 0.00 in0.0 mm
10:16 AM 46.4°F8.0°C 46.4°F8.0°C 100% 8.1 mph NE13.0 kmh NE 12.6 mph20.3 kmh 29.03 in983.1 mb 0.00 in0.0 mm 0.00 in0.0 mm 0.00 in0.0 mm
10:15 AM 46.4°F8.0°C 46.4°F8.0°C 100% 8.0 mph NE12.9 kmh NE 12.6 mph20.3 kmh 29.03 in983.1 mb 0.00 in0.0 mm 0.00 in0.0 mm 0.00 in0.0 mm
10:14 AM 46.4°F8.0°C 46.4°F8.0°C 100% 8.1 mph NE13.0 kmh NE 12.6 mph20.3 kmh 29.03 in983.1 mb 0.00 in0.0 mm 0.00 in0.0 mm 0.00 in0.0 mm
10:13 AM 46.4°F8.0°C 46.4°F8.0°C 100% 8.3 mph NE13.4 kmh NE 12.6 mph20.3 kmh 29.03 in983.1 mb 0.00 in0.0 mm 0.00 in0.0 mm 0.00 in0.0 mm
10:12 AM 46.4°F8.0°C 46.4°F8.0°C 100% 8.1 mph NE13.0 kmh NE 12.6 mph20.3 kmh 29.03 in983.1 mb 0.00 in0.0 mm 0.00 in0.0 mm 0.00 in0.0 mm
10:11 AM 46.4°F8.0°C 46.4°F8.0°C 100% 7.1 mph NE11.4 kmh NE 12.6 mph20.3 kmh 29.03 in983.1 mb 0.00 in0.0 mm 0.00 in0.0 mm 0.00 in0.0 mm
10:10 AM 46.2°F7.9°C 46.2°F7.9°C 100% 5.2 mph NE8.4 kmh NE 12.6 mph20.3 kmh 29.03 in983.1 mb 0.00 in0.0 mm 0.00 in0.0 mm 0.00 in0.0 mm
10:09 AM 46.2°F7.9°C 46.2°F7.9°C 100% 4.5 mph NE7.2 kmh NE 8.4 mph13.5 kmh 29.03 in983.1 mb 0.00 in0.0 mm 0.00 in0.0 mm 0.00 in0.0 mm
10:08 AM 46.2°F7.9°C 46.2°F7.9°C 100% 4.8 mph NE7.7 kmh NE 8.4 mph13.5 kmh 29.03 in983.1 mb 0.00 in0.0 mm 0.00 in0.0 mm 0.00 in0.0 mm
10:07 AM 46.2°F7.9°C 46.2°F7.9°C 100% 5.2 mph NE8.4 kmh NE 8.4 mph13.5 kmh 29.03 in983.1 mb 0.00 in0.0 mm 0.00 in0.0 mm 0.00 in0.0 mm
10:06 AM 46.2°F7.9°C 46.2°F7.9°C 100% 5.0 mph NE8.0 kmh NE 8.4 mph13.5 kmh 29.03 in983.1 mb 0.00 in0.0 mm 0.00 in0.0 mm 0.00 in0.0 mm
10:05 AM 46.2°F7.9°C 46.2°F7.9°C 100% 4.6 mph NNE7.4 kmh NNE 9.1 mph14.6 kmh 29.03 in983.1 mb 0.00 in0.0 mm 0.00 in0.0 mm 0.00 in0.0 mm
10:04 AM 46.2°F7.9°C 46.2°F7.9°C 100% 4.9 mph NNE7.9 kmh NNE 9.1 mph14.6 kmh 29.03 in983.1 mb 0.00 in0.0 mm 0.00 in0.0 mm 0.00 in0.0 mm
10:03 AM 46.2°F7.9°C 46.2°F7.9°C 100% 5.1 mph NE8.2 kmh NE 9.1 mph14.6 kmh 29.03 in983.1 mb 0.00 in0.0 mm 0.00 in0.0 mm 0.00 in0.0 mm
10:02 AM 46.2°F7.9°C 46.2°F7.9°C 100% 5.1 mph NE8.2 kmh NE 9.1 mph14.6 kmh 29.03 in983.1 mb 0.00 in0.0 mm 0.00 in0.0 mm 0.00 in0.0 mm
10:01 AM 46.2°F7.9°C 46.2°F7.9°C 100% 5.7 mph NE9.2 kmh NE 11.0 mph17.7 kmh 29.03 in983.1 mb 0.00 in0.0 mm 0.00 in0.0 mm 0.00 in0.0 mm
10:00 AM 46.0°F7.8°C 46.0°F7.8°C 100% 6.2 mph NNE10.0 kmh NNE 11.0 mph17.7 kmh 29.03 in983.1 mb 0.00 in0.0 mm 0.00 in0.0 mm 0.00 in0.0 mm
09:59 AM 46.0°F7.8°C 46.0°F7.8°C 100% 6.4 mph NE10.3 kmh NE 11.0 mph17.7 kmh 29.03 in983.1 mb 0.00 in0.0 mm 0.00 in0.0 mm 0.00 in0.0 mm
09:58 AM 46.2°F7.9°C 46.2°F7.9°C 100% 6.3 mph NE10.1 kmh NE 11.0 mph17.7 kmh 29.03 in983.1 mb 0.00 in0.0 mm 0.00 in0.0 mm 0.00 in0.0 mm
09:57 AM 46.0°F7.8°C 46.0°F7.8°C 100% 6.0 mph NE9.7 kmh NE 11.0 mph17.7 kmh 29.03 in983.1 mb 0.00 in0.0 mm 0.00 in0.0 mm 0.00 in0.0 mm
09:56 AM 46.2°F7.9°C 46.2°F7.9°C 100% 6.1 mph NE9.8 kmh NE 11.0 mph17.7 kmh 29.03 in983.1 mb 0.00 in0.0 mm 0.00 in0.0 mm 0.00 in0.0 mm
09:55 AM 46.0°F7.8°C 46.0°F7.8°C 100% 7.1 mph NE11.4 kmh NE 11.0 mph17.7 kmh 29.03 in983.1 mb 0.00 in0.0 mm 0.00 in0.0 mm 0.00 in0.0 mm
09:54 AM 46.2°F7.9°C 46.2°F7.9°C 100% 7.4 mph NE11.9 kmh NE 11.0 mph17.7 kmh 29.03 in983.1 mb 0.00 in0.0 mm 0.00 in0.0 mm 0.00 in0.0 mm
09:53 AM 46.2°F7.9°C 46.2°F7.9°C 100% 6.0 mph NE9.7 kmh NE 11.0 mph17.7 kmh 29.03 in983.1 mb 0.00 in0.0 mm 0.00 in0.0 mm 0.00 in0.0 mm
09:52 AM 46.2°F7.9°C 46.2°F7.9°C 100% 4.6 mph NE7.4 kmh NE 11.0 mph17.7 kmh 29.03 in983.1 mb 0.00 in0.0 mm 0.00 in0.0 mm 0.00 in0.0 mm
09:51 AM 46.2°F7.9°C 46.2°F7.9°C 100% 4.6 mph NE7.4 kmh NE 9.1 mph14.6 kmh 29.00 in982.1 mb 0.00 in0.0 mm 0.00 in0.0 mm 0.00 in0.0 mm
09:50 AM 46.2°F7.9°C 46.2°F7.9°C 100% 6.2 mph NE10.0 kmh NE 9.1 mph14.6 kmh 29.00 in982.1 mb 0.00 in0.0 mm 0.00 in0.0 mm 0.00 in0.0 mm
09:49 AM 46.2°F7.9°C 46.2°F7.9°C 100% 6.2 mph NE10.0 kmh NE 9.1 mph14.6 kmh 29.00 in982.1 mb 0.00 in0.0 mm 0.00 in0.0 mm 0.00 in0.0 mm
09:48 AM 46.2°F7.9°C 46.2°F7.9°C 100% 5.8 mph NNE9.3 kmh NNE 9.9 mph15.9 kmh 29.00 in982.1 mb 0.00 in0.0 mm 0.00 in0.0 mm 0.00 in0.0 mm
09:47 AM 46.2°F7.9°C 46.2°F7.9°C 100% 5.3 mph NNE8.5 kmh NNE 12.0 mph19.3 kmh 29.00 in982.1 mb 0.00 in0.0 mm 0.00 in0.0 mm 0.00 in0.0 mm
09:46 AM 46.2°F7.9°C 46.2°F7.9°C 100% 4.4 mph NE7.1 kmh NE 12.0 mph19.3 kmh 29.00 in982.1 mb 0.00 in0.0 mm 0.00 in0.0 mm 0.00 in0.0 mm
09:45 AM 46.2°F7.9°C 46.2°F7.9°C 100% 3.9 mph NE6.3 kmh NE 12.0 mph19.3 kmh 29.00 in982.1 mb 0.00 in0.0 mm 0.00 in0.0 mm 0.00 in0.0 mm
09:44 AM 46.2°F7.9°C 46.2°F7.9°C 100% 5.4 mph NE8.7 kmh NE 12.0 mph19.3 kmh 29.00 in982.1 mb 0.00 in0.0 mm 0.00 in0.0 mm 0.00 in0.0 mm
09:43 AM 46.2°F7.9°C 46.2°F7.9°C 100% 6.9 mph NE11.1 kmh NE 12.0 mph19.3 kmh 29.00 in982.1 mb 0.00 in0.0 mm 0.00 in0.0 mm 0.00 in0.0 mm
09:42 AM 46.0°F7.8°C 46.0°F7.8°C 100% 6.4 mph NE10.3 kmh NE 12.0 mph19.3 kmh 29.00 in982.1 mb 0.00 in0.0 mm 0.00 in0.0 mm 0.00 in0.0 mm
09:41 AM 46.0°F7.8°C 46.0°F7.8°C 100% 5.8 mph NE9.3 kmh NE 12.0 mph19.3 kmh 29.00 in982.1 mb 0.00 in0.0 mm 0.00 in0.0 mm 0.00 in0.0 mm
09:40 AM 46.0°F7.8°C 46.0°F7.8°C 100% 7.4 mph NE11.9 kmh NE 12.0 mph19.3 kmh 29.00 in982.1 mb 0.00 in0.0 mm 0.00 in0.0 mm 0.00 in0.0 mm
09:39 AM 46.0°F7.8°C 46.0°F7.8°C 100% 8.8 mph NE14.2 kmh NE 12.6 mph20.3 kmh 29.00 in982.1 mb 0.00 in0.0 mm 0.00 in0.0 mm 0.00 in0.0 mm
09:38 AM 46.0°F7.8°C 46.0°F7.8°C 100% 8.1 mph NE13.0 kmh NE 12.6 mph20.3 kmh 29.00 in982.1 mb 0.00 in0.0 mm 0.00 in0.0 mm 0.00 in0.0 mm
09:37 AM 46.0°F7.8°C 46.0°F7.8°C 100% 7.1 mph NE11.4 kmh NE 12.6 mph20.3 kmh 29.00 in982.1 mb 0.00 in0.0 mm 0.00 in0.0 mm 0.00 in0.0 mm
09:36 AM 45.9°F7.7°C 45.9°F7.7°C 100% 6.3 mph NE10.1 kmh NE 12.6 mph20.3 kmh 29.00 in982.1 mb 0.00 in0.0 mm 0.00 in0.0 mm 0.00 in0.0 mm
09:35 AM 45.9°F7.7°C 45.9°F7.7°C 100% 6.7 mph NE10.8 kmh NE 12.6 mph20.3 kmh 29.00 in982.1 mb 0.00 in0.0 mm 0.00 in0.0 mm 0.00 in0.0 mm
09:34 AM 45.9°F7.7°C 45.9°F7.7°C 100% 7.5 mph NE12.1 kmh NE 12.6 mph20.3 kmh 29.00 in982.1 mb 0.00 in0.0 mm 0.00 in0.0 mm 0.00 in0.0 mm
09:33 AM 45.9°F7.7°C 45.9°F7.7°C 100% 6.0 mph NE9.7 kmh NE 12.6 mph20.3 kmh 29.00 in982.1 mb 0.00 in0.0 mm 0.00 in0.0 mm 0.00 in0.0 mm
09:32 AM 45.9°F7.7°C 45.9°F7.7°C 100% 5.9 mph NE9.5 kmh NE 12.6 mph20.3 kmh 29.00 in982.1 mb 0.00 in0.0 mm 0.00 in0.0 mm 0.00 in0.0 mm
09:31 AM 45.9°F7.7°C 45.9°F7.7°C 100% 6.1 mph NE9.8 kmh NE 12.6 mph20.3 kmh 29.00 in982.1 mb 0.00 in0.0 mm 0.00 in0.0 mm 0.00 in0.0 mm
09:30 AM 45.7°F7.6°C 45.7°F7.6°C 100% 6.8 mph NE10.9 kmh NE 12.6 mph20.3 kmh 29.00 in982.1 mb 0.00 in0.0 mm 0.00 in0.0 mm 0.00 in0.0 mm
09:29 AM 45.7°F7.6°C 45.7°F7.6°C 100% 7.2 mph NE11.6 kmh NE 12.0 mph19.3 kmh 29.00 in982.1 mb 0.00 in0.0 mm 0.00 in0.0 mm 0.00 in0.0 mm
09:28 AM 45.7°F7.6°C 45.7°F7.6°C 100% 8.4 mph NE13.5 kmh NE 12.0 mph19.3 kmh 29.00 in982.1 mb 0.00 in0.0 mm 0.00 in0.0 mm 0.00 in0.0 mm
09:27 AM 45.5°F7.5°C 45.5°F7.5°C 100% 8.8 mph NE14.2 kmh NE 12.0 mph19.3 kmh 29.00 in982.1 mb 0.00 in0.0 mm 0.00 in0.0 mm 0.00 in0.0 mm
09:26 AM 45.5°F7.5°C 45.5°F7.5°C 100% 8.2 mph NE13.2 kmh NE 12.0 mph19.3 kmh 29.00 in982.1 mb 0.00 in0.0 mm 0.00 in0.0 mm 0.00 in0.0 mm
09:25 AM 45.5°F7.5°C 45.5°F7.5°C 100% 7.4 mph NE11.9 kmh NE 11.7 mph18.8 kmh 29.00 in982.1 mb 0.00 in0.0 mm 0.00 in0.0 mm 0.00 in0.0 mm
09:24 AM 45.3°F7.4°C 45.3°F7.4°C 100% 6.5 mph NE10.5 kmh NE 11.7 mph18.8 kmh 29.00 in982.1 mb 0.00 in0.0 mm 0.00 in0.0 mm 0.00 in0.0 mm
09:23 AM 45.3°F7.4°C 45.3°F7.4°C 100% 6.5 mph NE10.5 kmh NE 11.7 mph18.8 kmh 29.00 in982.1 mb 0.00 in0.0 mm 0.00 in0.0 mm 0.00 in0.0 mm
09:22 AM 45.3°F7.4°C 45.3°F7.4°C 100% 7.0 mph NE11.3 kmh NE 11.7 mph18.8 kmh 29.00 in982.1 mb 0.00 in0.0 mm 0.00 in0.0 mm 0.00 in0.0 mm
09:21 AM 45.3°F7.4°C 45.3°F7.4°C 100% 6.5 mph NE10.5 kmh NE 11.7 mph18.8 kmh 29.00 in982.1 mb 0.00 in0.0 mm 0.00 in0.0 mm 0.00 in0.0 mm
09:20 AM 45.3°F7.4°C 45.3°F7.4°C 100% 6.1 mph NE9.8 kmh NE 11.7 mph18.8 kmh 29.00 in982.1 mb 0.00 in0.0 mm 0.00 in0.0 mm 0.00 in0.0 mm
09:19 AM 45.3°F7.4°C 45.3°F7.4°C 100% 5.4 mph NE8.7 kmh NE 11.7 mph18.8 kmh 29.00 in982.1 mb 0.00 in0.0 mm 0.00 in0.0 mm 0.00 in0.0 mm
09:18 AM 45.3°F7.4°C 45.3°F7.4°C 100% 4.9 mph NE7.9 kmh NE 11.7 mph18.8 kmh 29.00 in982.1 mb 0.00 in0.0 mm 0.00 in0.0 mm 0.00 in0.0 mm
09:17 AM 45.3°F7.4°C 45.3°F7.4°C 100% 5.3 mph NE8.5 kmh NE 11.7 mph18.8 kmh 29.00 in982.1 mb 0.00 in0.0 mm 0.00 in0.0 mm 0.00 in0.0 mm
09:16 AM 45.1°F7.3°C 45.1°F7.3°C 100% 6.5 mph NE10.5 kmh NE 11.7 mph18.8 kmh 29.00 in982.1 mb 0.00 in0.0 mm 0.00 in0.0 mm 0.00 in0.0 mm
09:15 AM 45.1°F7.3°C 45.1°F7.3°C 100% 6.2 mph NE10.0 kmh NE 11.7 mph18.8 kmh 29.00 in982.1 mb 0.00 in0.0 mm 0.00 in0.0 mm 0.00 in0.0 mm
09:14 AM 45.1°F7.3°C 45.1°F7.3°C 100% 5.2 mph NE8.4 kmh NE 11.7 mph18.8 kmh 29.00 in982.1 mb 0.00 in0.0 mm 0.00 in0.0 mm 0.00 in0.0 mm
09:13 AM 45.1°F7.3°C 45.1°F7.3°C 100% 5.4 mph NNE8.7 kmh NNE 11.0 mph17.7 kmh 29.00 in982.1 mb 0.00 in0.0 mm 0.00 in0.0 mm 0.00 in0.0 mm
09:12 AM 45.1°F7.3°C 45.1°F7.3°C 100% 6.0 mph NE9.7 kmh NE 11.0 mph17.7 kmh 29.00 in982.1 mb 0.00 in0.0 mm 0.00 in0.0 mm 0.00 in0.0 mm
09:11 AM 45.1°F7.3°C 45.1°F7.3°C 100% 6.2 mph NE10.0 kmh NE 11.7 mph18.8 kmh 29.00 in982.1 mb 0.00 in0.0 mm 0.00 in0.0 mm 0.00 in0.0 mm
09:10 AM 45.0°F7.2°C 45.0°F7.2°C 100% 5.8 mph NNE9.3 kmh NNE 11.7 mph18.8 kmh 29.00 in982.1 mb 0.00 in0.0 mm 0.00 in0.0 mm 0.00 in0.0 mm
09:09 AM 45.0°F7.2°C 45.0°F7.2°C 100% 6.0 mph NNE9.7 kmh NNE 11.7 mph18.8 kmh 29.00 in982.1 mb 0.00 in0.0 mm 0.00 in0.0 mm 0.00 in0.0 mm
09:08 AM 45.0°F7.2°C 45.0°F7.2°C 100% 6.5 mph NE10.5 kmh NE 11.7 mph18.8 kmh 29.00 in982.1 mb 0.00 in0.0 mm 0.00 in0.0 mm 0.00 in0.0 mm
09:07 AM 44.8°F7.1°C 44.8°F7.1°C 100% 7.0 mph NNE11.3 kmh NNE 11.7 mph18.8 kmh 29.00 in982.1 mb 0.00 in0.0 mm 0.00 in0.0 mm 0.00 in0.0 mm
09:06 AM 45.0°F7.2°C 45.0°F7.2°C 100% 7.0 mph NNE11.3 kmh NNE 11.7 mph18.8 kmh 29.00 in982.1 mb 0.00 in0.0 mm 0.00 in0.0 mm 0.00 in0.0 mm
09:05 AM 44.8°F7.1°C 44.8°F7.1°C 100% 7.1 mph NNE11.4 kmh NNE 11.7 mph18.8 kmh 29.00 in982.1 mb 0.00 in0.0 mm 0.00 in0.0 mm 0.00 in0.0 mm
09:04 AM 44.8°F7.1°C 44.8°F7.1°C 100% 8.1 mph NNE13.0 kmh NNE 11.7 mph18.8 kmh 29.00 in982.1 mb 0.00 in0.0 mm 0.00 in0.0 mm 0.00 in0.0 mm
09:03 AM 44.8°F7.1°C 44.8°F7.1°C 100% 7.6 mph NNE12.2 kmh NNE 11.7 mph18.8 kmh 29.00 in982.1 mb 0.00 in0.0 mm 0.00 in0.0 mm 0.00 in0.0 mm
09:02 AM 44.8°F7.1°C 44.8°F7.1°C 100% 6.8 mph NNE10.9 kmh NNE 11.7 mph18.8 kmh 29.00 in982.1 mb 0.00 in0.0 mm 0.00 in0.0 mm 0.00 in0.0 mm
09:01 AM 44.8°F7.1°C 44.8°F7.1°C 100% 6.2 mph NNE10.0 kmh NNE 11.7 mph18.8 kmh 29.00 in982.1 mb 0.00 in0.0 mm 0.00 in0.0 mm 0.00 in0.0 mm
09:00 AM 44.8°F7.1°C 44.8°F7.1°C 100% 6.4 mph NE10.3 kmh NE 11.0 mph17.7 kmh 29.00 in982.1 mb 0.00 in0.0 mm 0.00 in0.0 mm 0.00 in0.0 mm
08:59 AM 44.8°F7.1°C 44.8°F7.1°C 100% 6.6 mph NE10.6 kmh NE 11.0 mph17.7 kmh 29.00 in982.1 mb 0.00 in0.0 mm 0.00 in0.0 mm 0.00 in0.0 mm
08:58 AM 44.8°F7.1°C 44.8°F7.1°C 100% 6.3 mph NNE10.1 kmh NNE 9.1 mph14.6 kmh 29.00 in982.1 mb 0.00 in0.0 mm 0.00 in0.0 mm 0.00 in0.0 mm
08:57 AM 44.6°F7.0°C 44.6°F7.0°C 100% 5.5 mph NNE8.9 kmh NNE 9.1 mph14.6 kmh 29.00 in982.1 mb 0.00 in0.0 mm 0.00 in0.0 mm 0.00 in0.0 mm
08:56 AM 44.6°F7.0°C 44.6°F7.0°C 100% 5.1 mph NE8.2 kmh NE 9.1 mph14.6 kmh 29.00 in982.1 mb 0.00 in0.0 mm 0.00 in0.0 mm 0.00 in0.0 mm
08:55 AM 44.6°F7.0°C 44.6°F7.0°C 100% 5.2 mph NE8.4 kmh NE 9.1 mph14.6 kmh 29.00 in982.1 mb 0.00 in0.0 mm 0.00 in0.0 mm 0.00 in0.0 mm
08:54 AM 44.6°F7.0°C 44.6°F7.0°C 100% 5.4 mph NE8.7 kmh NE 9.1 mph14.6 kmh 29.00 in982.1 mb 0.00 in0.0 mm 0.00 in0.0 mm 0.00 in0.0 mm
08:53 AM 44.6°F7.0°C 44.6°F7.0°C 100% 5.0 mph NNE8.0 kmh NNE 9.1 mph14.6 kmh 29.00 in982.1 mb 0.00 in0.0 mm 0.00 in0.0 mm 0.00 in0.0 mm
08:52 AM 44.6°F7.0°C 44.6°F7.0°C 100% 4.3 mph NE6.9 kmh NE 9.1 mph14.6 kmh 29.00 in982.1 mb 0.00 in0.0 mm 0.00 in0.0 mm 0.00 in0.0 mm
08:51 AM 44.6°F7.0°C 44.6°F7.0°C 100% 4.3 mph NE6.9 kmh NE 9.1 mph14.6 kmh 29.00 in982.1 mb 0.00 in0.0 mm 0.00 in0.0 mm 0.00 in0.0 mm
08:50 AM 44.6°F7.0°C 44.6°F7.0°C 100% 4.8 mph NE7.7 kmh NE 9.1 mph14.6 kmh 29.00 in982.1 mb 0.00 in0.0 mm 0.00 in0.0 mm 0.00 in0.0 mm
08:49 AM 44.6°F7.0°C 44.6°F7.0°C 100% 4.9 mph NE7.9 kmh NE 9.1 mph14.6 kmh 29.00 in982.1 mb 0.00 in0.0 mm 0.00 in0.0 mm 0.00 in0.0 mm
08:48 AM 44.4°F6.9°C 44.4°F6.9°C 100% 5.4 mph NE8.7 kmh NE 9.1 mph14.6 kmh 29.00 in982.1 mb 0.00 in0.0 mm 0.00 in0.0 mm 0.00 in0.0 mm
08:47 AM 44.4°F6.9°C 44.4°F6.9°C 100% 5.8 mph NE9.3 kmh NE 9.1 mph14.6 kmh 29.00 in982.1 mb 0.00 in0.0 mm 0.00 in0.0 mm 0.00 in0.0 mm
08:46 AM 44.4°F6.9°C 44.4°F6.9°C 100% 5.5 mph NNE8.9 kmh NNE 9.1 mph14.6 kmh 29.00 in982.1 mb 0.00 in0.0 mm 0.00 in0.0 mm 0.00 in0.0 mm
08:45 AM 44.4°F6.9°C 44.4°F6.9°C 100% 5.1 mph NNE8.2 kmh NNE 9.1 mph14.6 kmh 29.00 in982.1 mb 0.00 in0.0 mm 0.00 in0.0 mm 0.00 in0.0 mm
08:44 AM 44.4°F6.9°C 44.4°F6.9°C 100% 4.7 mph NE7.6 kmh NE 9.1 mph14.6 kmh 29.00 in982.1 mb 0.00 in0.0 mm 0.00 in0.0 mm 0.00 in0.0 mm
08:43 AM 44.4°F6.9°C 44.4°F6.9°C 100% 4.6 mph NE7.4 kmh NE 9.1 mph14.6 kmh 29.00 in982.1 mb 0.00 in0.0 mm 0.00 in0.0 mm 0.00 in0.0 mm
08:42 AM 44.4°F6.9°C 44.4°F6.9°C 100% 4.6 mph NE7.4 kmh NE 9.7 mph15.6 kmh 29.00 in982.1 mb 0.00 in0.0 mm 0.00 in0.0 mm 0.00 in0.0 mm
08:41 AM 44.2°F6.8°C 44.2°F6.8°C 100% 5.2 mph NE8.4 kmh NE 9.7 mph15.6 kmh 29.00 in982.1 mb 0.00 in0.0 mm 0.00 in0.0 mm 0.00 in0.0 mm
08:40 AM 44.2°F6.8°C 44.2°F6.8°C 100% 5.3 mph NNE8.5 kmh NNE 11.7 mph18.8 kmh 29.00 in982.1 mb 0.00 in0.0 mm 0.00 in0.0 mm 0.00 in0.0 mm
08:39 AM 44.2°F6.8°C 44.2°F6.8°C 100% 4.9 mph NNE7.9 kmh NNE 12.6 mph20.3 kmh 29.00 in982.1 mb 0.00 in0.0 mm 0.00 in0.0 mm 0.00 in0.0 mm
08:38 AM 44.2°F6.8°C 44.2°F6.8°C 100% 5.7 mph NNE9.2 kmh NNE 12.6 mph20.3 kmh 29.00 in982.1 mb 0.00 in0.0 mm 0.00 in0.0 mm 0.00 in0.0 mm
08:37 AM 44.2°F6.8°C 44.2°F6.8°C 100% 6.7 mph NE10.8 kmh NE 12.6 mph20.3 kmh 29.00 in982.1 mb 0.00 in0.0 mm 0.00 in0.0 mm 0.00 in0.0 mm
08:36 AM 44.2°F6.8°C 44.2°F6.8°C 100% 6.8 mph NE10.9 kmh NE 12.6 mph20.3 kmh 29.00 in982.1 mb 0.00 in0.0 mm 0.00 in0.0 mm 0.00 in0.0 mm
08:35 AM 44.2°F6.8°C 44.2°F6.8°C 100% 6.6 mph NE10.6 kmh NE 12.6 mph20.3 kmh 29.00 in982.1 mb 0.00 in0.0 mm 0.00 in0.0 mm 0.00 in0.0 mm
08:34 AM 44.2°F6.8°C 44.2°F6.8°C 100% 6.0 mph NE9.7 kmh NE 12.6 mph20.3 kmh 29.00 in982.1 mb 0.00 in0.0 mm 0.00 in0.0 mm 0.00 in0.0 mm
08:33 AM 44.2°F6.8°C 44.2°F6.8°C 100% 6.0 mph NNE9.7 kmh NNE 12.6 mph20.3 kmh 29.00 in982.1 mb 0.00 in0.0 mm 0.00 in0.0 mm 0.00 in0.0 mm
08:32 AM 44.2°F6.8°C 44.2°F6.8°C 100% 6.8 mph NNE10.9 kmh NNE 12.6 mph20.3 kmh 29.00 in982.1 mb 0.00 in0.0 mm 0.00 in0.0 mm 0.00 in0.0 mm
08:31 AM 44.2°F6.8°C 44.2°F6.8°C 100% 6.4 mph NE10.3 kmh NE 12.6 mph20.3 kmh 29.00 in982.1 mb 0.00 in0.0 mm 0.00 in0.0 mm 0.00 in0.0 mm
08:30 AM 44.2°F6.8°C 44.2°F6.8°C 100% 5.3 mph NE8.5 kmh NE 12.6 mph20.3 kmh 29.00 in982.1 mb 0.00 in0.0 mm 0.00 in0.0 mm 0.00 in0.0 mm
08:29 AM 44.2°F6.8°C 44.2°F6.8°C 100% 5.1 mph NE8.2 kmh NE 12.6 mph20.3 kmh 29.00 in982.1 mb 0.00 in0.0 mm 0.00 in0.0 mm 0.00 in0.0 mm
08:28 AM 44.2°F6.8°C 44.2°F6.8°C 100% 5.4 mph NE8.7 kmh NE 11.7 mph18.8 kmh 29.00 in982.1 mb 0.00 in0.0 mm 0.00 in0.0 mm 0.00 in0.0 mm
08:27 AM 44.1°F6.7°C 44.1°F6.7°C 100% 5.4 mph NE8.7 kmh NE 11.7 mph18.8 kmh 29.00 in982.1 mb 0.00 in0.0 mm 0.00 in0.0 mm 0.00 in0.0 mm
08:26 AM 44.1°F6.7°C 44.1°F6.7°C 100% 6.0 mph NE9.7 kmh NE 11.7 mph18.8 kmh 29.00 in982.1 mb 0.00 in0.0 mm 0.00 in0.0 mm 0.00 in0.0 mm
08:25 AM 44.1°F6.7°C 44.1°F6.7°C 100% 6.5 mph NE10.5 kmh NE 11.7 mph18.8 kmh 29.00 in982.1 mb 0.00 in0.0 mm 0.00 in0.0 mm 0.00 in0.0 mm
08:24 AM 44.1°F6.7°C 44.1°F6.7°C 100% 5.8 mph NE9.3 kmh NE 11.7 mph18.8 kmh 29.00 in982.1 mb 0.00 in0.0 mm 0.00 in0.0 mm 0.00 in0.0 mm
08:23 AM 44.2°F6.8°C 44.2°F6.8°C 100% 5.3 mph NE8.5 kmh NE 11.7 mph18.8 kmh 29.00 in982.1 mb 0.00 in0.0 mm 0.00 in0.0 mm 0.00 in0.0 mm
08:22 AM 44.2°F6.8°C 44.2°F6.8°C 100% 5.7 mph NNE9.2 kmh NNE 11.7 mph18.8 kmh 29.00 in982.1 mb 0.00 in0.0 mm 0.00 in0.0 mm 0.00 in0.0 mm
08:21 AM 44.1°F6.7°C 44.1°F6.7°C 100% 6.3 mph NE10.1 kmh NE 11.7 mph18.8 kmh 29.00 in982.1 mb 0.00 in0.0 mm 0.00 in0.0 mm 0.00 in0.0 mm
08:20 AM 44.1°F6.7°C 44.1°F6.7°C 100% 6.5 mph NE10.5 kmh NE 11.7 mph18.8 kmh 29.00 in982.1 mb 0.00 in0.0 mm 0.00 in0.0 mm 0.00 in0.0 mm
08:19 AM 44.2°F6.8°C 44.2°F6.8°C 100% 6.2 mph NNE10.0 kmh NNE 11.7 mph18.8 kmh 29.00 in982.1 mb 0.00 in0.0 mm 0.00 in0.0 mm 0.00 in0.0 mm
08:18 AM 44.2°F6.8°C 44.2°F6.8°C 100% 6.3 mph NE10.1 kmh NE 9.1 mph14.6 kmh 29.00 in982.1 mb 0.00 in0.0 mm 0.00 in0.0 mm 0.00 in0.0 mm
08:17 AM 44.2°F6.8°C 44.2°F6.8°C 100% 6.9 mph NE11.1 kmh NE 9.1 mph14.6 kmh 29.00 in982.1 mb 0.00 in0.0 mm 0.00 in0.0 mm 0.00 in0.0 mm
08:16 AM 44.2°F6.8°C 44.2°F6.8°C 100% 7.5 mph NNE12.1 kmh NNE 9.1 mph14.6 kmh 29.00 in982.1 mb 0.00 in0.0 mm 0.00 in0.0 mm 0.00 in0.0 mm
08:15 AM 44.2°F6.8°C 44.2°F6.8°C 100% 7.7 mph NE12.4 kmh NE 9.1 mph14.6 kmh 29.00 in982.1 mb 0.00 in0.0 mm 0.00 in0.0 mm 0.00 in0.0 mm
08:14 AM 44.2°F6.8°C 44.2°F6.8°C 100% 6.1 mph NE9.8 kmh NE 9.2 mph14.8 kmh 29.00 in982.1 mb 0.00 in0.0 mm 0.00 in0.0 mm 0.00 in0.0 mm
08:13 AM 44.2°F6.8°C 44.2°F6.8°C 100% 5.6 mph NE9.0 kmh NE 11.7 mph18.8 kmh 29.00 in982.1 mb 0.00 in0.0 mm 0.00 in0.0 mm 0.00 in0.0 mm
08:12 AM 44.1°F6.7°C 44.1°F6.7°C 100% 5.7 mph NE9.2 kmh NE 11.7 mph18.8 kmh 29.00 in982.1 mb 0.00 in0.0 mm 0.00 in0.0 mm 0.00 in0.0 mm
08:11 AM 44.1°F6.7°C 44.1°F6.7°C 100% 5.5 mph NE8.9 kmh NE 11.7 mph18.8 kmh 29.00 in982.1 mb 0.00 in0.0 mm 0.00 in0.0 mm 0.00 in0.0 mm
08:10 AM 44.1°F6.7°C 44.1°F6.7°C 100% 6.5 mph NE10.5 kmh NE 11.7 mph18.8 kmh 29.00 in982.1 mb 0.00 in0.0 mm 0.00 in0.0 mm 0.00 in0.0 mm
08:09 AM 44.1°F6.7°C 44.1°F6.7°C 100% 6.8 mph NE10.9 kmh NE 11.7 mph18.8 kmh 29.00 in982.1 mb 0.00 in0.0 mm 0.00 in0.0 mm 0.00 in0.0 mm
08:08 AM 44.1°F6.7°C 44.1°F6.7°C 100% 5.6 mph NNE9.0 kmh NNE 11.7 mph18.8 kmh 29.00 in982.1 mb 0.00 in0.0 mm 0.00 in0.0 mm 0.00 in0.0 mm
08:07 AM 44.1°F6.7°C 44.1°F6.7°C 100% 5.4 mph NNE8.7 kmh NNE 11.7 mph18.8 kmh 29.00 in982.1 mb 0.00 in0.0 mm 0.00 in0.0 mm 0.00 in0.0 mm
08:06 AM 44.1°F6.7°C 44.1°F6.7°C 100% 6.3 mph NNE10.1 kmh NNE 11.7 mph18.8 kmh 29.00 in982.1 mb 0.00 in0.0 mm 0.00 in0.0 mm 0.00 in0.0 mm
08:05 AM 44.2°F6.8°C 44.2°F6.8°C 100% 7.0 mph NE11.3 kmh NE 11.7 mph18.8 kmh 29.00 in982.1 mb 0.00 in0.0 mm 0.00 in0.0 mm 0.00 in0.0 mm
08:04 AM 44.2°F6.8°C 44.2°F6.8°C 100% 6.5 mph NE10.5 kmh NE 11.7 mph18.8 kmh 29.00 in982.1 mb 0.00 in0.0 mm 0.00 in0.0 mm 0.00 in0.0 mm
08:03 AM 44.2°F6.8°C 44.2°F6.8°C 100% 4.8 mph NNE7.7 kmh NNE 9.7 mph15.6 kmh 29.00 in982.1 mb 0.00 in0.0 mm 0.00 in0.0 mm 0.00 in0.0 mm
08:02 AM 44.2°F6.8°C 44.2°F6.8°C 100% 4.3 mph NNE6.9 kmh NNE 9.1 mph14.6 kmh 29.00 in982.1 mb 0.00 in0.0 mm 0.00 in0.0 mm 0.00 in0.0 mm
08:01 AM 44.2°F6.8°C 44.2°F6.8°C 100% 4.5 mph NNE7.2 kmh NNE 9.7 mph15.6 kmh 29.00 in982.1 mb 0.00 in0.0 mm 0.00 in0.0 mm 0.00 in0.0 mm
08:00 AM 44.1°F6.7°C 44.1°F6.7°C 100% 4.8 mph NE7.7 kmh NE 9.7 mph15.6 kmh 29.00 in982.1 mb 0.00 in0.0 mm 0.00 in0.0 mm 0.00 in0.0 mm
07:59 AM 44.1°F6.7°C 44.1°F6.7°C 100% 5.4 mph NNE8.7 kmh NNE 9.7 mph15.6 kmh 29.00 in982.1 mb 0.00 in0.0 mm 0.00 in0.0 mm 0.00 in0.0 mm
07:58 AM 44.1°F6.7°C 44.1°F6.7°C 100% 6.2 mph NNE10.0 kmh NNE 12.0 mph19.3 kmh 29.00 in982.1 mb 0.00 in0.0 mm 0.00 in0.0 mm 0.00 in0.0 mm
07:57 AM 44.1°F6.7°C 44.1°F6.7°C 100% 6.5 mph NNE10.5 kmh NNE 12.0 mph19.3 kmh 29.00 in982.1 mb 0.00 in0.0 mm 0.00 in0.0 mm 0.00 in0.0 mm
07:56 AM 44.1°F6.7°C 44.1°F6.7°C 100% 5.9 mph NNE9.5 kmh NNE 12.0 mph19.3 kmh 29.00 in982.1 mb 0.00 in0.0 mm 0.00 in0.0 mm 0.00 in0.0 mm
07:55 AM 44.1°F6.7°C 44.1°F6.7°C 100% 5.6 mph NE9.0 kmh NE 12.0 mph19.3 kmh 29.00 in982.1 mb 0.00 in0.0 mm 0.00 in0.0 mm 0.00 in0.0 mm
07:54 AM 44.1°F6.7°C 44.1°F6.7°C 100% 6.6 mph NNE10.6 kmh NNE 12.0 mph19.3 kmh 29.00 in982.1 mb 0.00 in0.0 mm 0.00 in0.0 mm 0.00 in0.0 mm
07:53 AM 44.1°F6.7°C 44.1°F6.7°C 100% 6.9 mph NNE11.1 kmh NNE 12.6 mph20.3 kmh 29.00 in982.1 mb 0.00 in0.0 mm 0.00 in0.0 mm 0.00 in0.0 mm
07:52 AM 44.1°F6.7°C 44.1°F6.7°C 100% 6.3 mph NE10.1 kmh NE 12.6 mph20.3 kmh 29.00 in982.1 mb 0.00 in0.0 mm 0.00 in0.0 mm 0.00 in0.0 mm
07:51 AM 44.1°F6.7°C 44.1°F6.7°C 100% 6.4 mph NNE10.3 kmh NNE 12.6 mph20.3 kmh 29.00 in982.1 mb 0.00 in0.0 mm 0.00 in0.0 mm 0.00 in0.0 mm
07:50 AM 44.1°F6.7°C 44.1°F6.7°C 100% 7.1 mph NNE11.4 kmh NNE 12.6 mph20.3 kmh 29.00 in982.1 mb 0.00 in0.0 mm 0.00 in0.0 mm 0.00 in0.0 mm
07:49 AM 44.1°F6.7°C 44.1°F6.7°C 100% 7.3 mph N11.7 kmh N 12.6 mph20.3 kmh 29.00 in982.1 mb 0.00 in0.0 mm 0.00 in0.0 mm 0.00 in0.0 mm
07:48 AM 44.1°F6.7°C 44.1°F6.7°C 100% 7.2 mph N11.6 kmh N 12.6 mph20.3 kmh 29.00 in982.1 mb 0.00 in0.0 mm 0.00 in0.0 mm 0.00 in0.0 mm
07:47 AM 44.1°F6.7°C 44.1°F6.7°C 100% 8.2 mph NNE13.2 kmh NNE 12.6 mph20.3 kmh 29.00 in982.1 mb 0.00 in0.0 mm 0.00 in0.0 mm 0.00 in0.0 mm
07:46 AM 44.1°F6.7°C 44.1°F6.7°C 100% 8.2 mph NNE13.2 kmh NNE 12.6 mph20.3 kmh 29.00 in982.1 mb 0.00 in0.0 mm 0.00 in0.0 mm 0.00 in0.0 mm
07:45 AM 44.1°F6.7°C 44.1°F6.7°C 100% 6.7 mph NNE10.8 kmh NNE 12.6 mph20.3 kmh 29.00 in982.1 mb 0.00 in0.0 mm 0.00 in0.0 mm 0.00 in0.0 mm
07:44 AM 44.1°F6.7°C 44.1°F6.7°C 100% 6.8 mph NNE10.9 kmh NNE 11.7 mph18.8 kmh 29.00 in982.1 mb 0.00 in0.0 mm 0.00 in0.0 mm 0.00 in0.0 mm
07:43 AM 44.1°F6.7°C 44.1°F6.7°C 100% 7.5 mph NE12.1 kmh NE 11.7 mph18.8 kmh 29.00 in982.1 mb 0.00 in0.0 mm 0.00 in0.0 mm 0.00 in0.0 mm
07:42 AM 44.1°F6.7°C 44.1°F6.7°C 100% 6.9 mph NE11.1 kmh NE 11.7 mph18.8 kmh 29.00 in982.1 mb 0.00 in0.0 mm 0.00 in0.0 mm 0.00 in0.0 mm
07:41 AM 44.1°F6.7°C 44.1°F6.7°C 100% 6.6 mph NE10.6 kmh NE 12.0 mph19.3 kmh 29.00 in982.1 mb 0.00 in0.0 mm 0.00 in0.0 mm 0.00 in0.0 mm
07:40 AM 44.1°F6.7°C 44.1°F6.7°C 100% 7.8 mph NNE12.6 kmh NNE 12.0 mph19.3 kmh 29.00 in982.1 mb 0.00 in0.0 mm 0.00 in0.0 mm 0.00 in0.0 mm
07:39 AM 44.1°F6.7°C 44.1°F6.7°C 100% 8.0 mph N12.9 kmh N 12.0 mph19.3 kmh 29.00 in982.1 mb 0.00 in0.0 mm 0.00 in0.0 mm 0.00 in0.0 mm
07:38 AM 44.1°F6.7°C 44.1°F6.7°C 100% 7.2 mph N11.6 kmh N 12.0 mph19.3 kmh 29.00 in982.1 mb 0.00 in0.0 mm 0.00 in0.0 mm 0.00 in0.0 mm
07:37 AM 44.1°F6.7°C 44.1°F6.7°C 100% 6.8 mph NNE10.9 kmh NNE 12.0 mph19.3 kmh 29.00 in982.1 mb 0.00 in0.0 mm 0.00 in0.0 mm 0.00 in0.0 mm
07:36 AM 44.2°F6.8°C 44.2°F6.8°C 100% 7.4 mph NNE11.9 kmh NNE 12.0 mph19.3 kmh 29.00 in982.1 mb 0.00 in0.0 mm 0.00 in0.0 mm 0.00 in0.0 mm
07:35 AM 44.1°F6.7°C 44.1°F6.7°C 100% 7.7 mph NNE12.4 kmh NNE 12.0 mph19.3 kmh 29.00 in982.1 mb 0.00 in0.0 mm 0.00 in0.0 mm 0.00 in0.0 mm
07:34 AM 44.1°F6.7°C 44.1°F6.7°C 100% 8.4 mph NNE13.5 kmh NNE 12.0 mph19.3 kmh 29.00 in982.1 mb 0.00 in0.0 mm 0.00 in0.0 mm 0.00 in0.0 mm
07:33 AM 44.2°F6.8°C 44.2°F6.8°C 100% 8.7 mph N14.0 kmh N 12.0 mph19.3 kmh 29.00 in982.1 mb 0.00 in0.0 mm 0.00 in0.0 mm 0.00 in0.0 mm
07:32 AM 44.2°F6.8°C 44.2°F6.8°C 100% 7.7 mph NNE12.4 kmh NNE 12.0 mph19.3 kmh 29.00 in982.1 mb 0.00 in0.0 mm 0.00 in0.0 mm 0.00 in0.0 mm
07:31 AM 44.2°F6.8°C 44.2°F6.8°C 100% 6.9 mph NNE11.1 kmh NNE 12.0 mph19.3 kmh 29.00 in982.1 mb 0.00 in0.0 mm 0.00 in0.0 mm 0.00 in0.0 mm
07:30 AM 44.2°F6.8°C 44.2°F6.8°C 100% 6.0 mph NNE9.7 kmh NNE 12.0 mph19.3 kmh 29.00 in982.1 mb 0.00 in0.0 mm 0.00 in0.0 mm 0.00 in0.0 mm
07:29 AM 44.2°F6.8°C 44.2°F6.8°C 100% 7.0 mph NNE11.3 kmh NNE 12.0 mph19.3 kmh 29.00 in982.1 mb 0.00 in0.0 mm 0.00 in0.0 mm 0.00 in0.0 mm
07:28 AM 44.2°F6.8°C 44.2°F6.8°C 100% 8.5 mph NNE13.7 kmh NNE 12.0 mph19.3 kmh 29.00 in982.1 mb 0.00 in0.0 mm 0.00 in0.0 mm 0.00 in0.0 mm
07:27 AM 44.2°F6.8°C 44.2°F6.8°C 100% 8.7 mph NNE14.0 kmh NNE 12.0 mph19.3 kmh 29.00 in982.1 mb 0.00 in0.0 mm 0.00 in0.0 mm 0.00 in0.0 mm
07:26 AM 44.2°F6.8°C 44.2°F6.8°C 100% 6.6 mph NNE10.6 kmh NNE 12.0 mph19.3 kmh 29.00 in982.1 mb 0.00 in0.0 mm 0.00 in0.0 mm 0.00 in0.0 mm
07:25 AM 44.2°F6.8°C 44.2°F6.8°C 100% 5.3 mph NNE8.5 kmh NNE 11.7 mph18.8 kmh 29.00 in982.1 mb 0.00 in0.0 mm 0.00 in0.0 mm 0.00 in0.0 mm
07:24 AM 44.2°F6.8°C 44.2°F6.8°C 100% 4.9 mph NNE7.9 kmh NNE 9.1 mph14.6 kmh 29.00 in982.1 mb 0.00 in0.0 mm 0.00 in0.0 mm 0.00 in0.0 mm
07:23 AM 44.2°F6.8°C 44.2°F6.8°C 100% 5.5 mph NNE8.9 kmh NNE 9.2 mph14.8 kmh 29.00 in982.1 mb 0.00 in0.0 mm 0.00 in0.0 mm 0.00 in0.0 mm
07:22 AM 44.1°F6.7°C 44.1°F6.7°C 100% 6.3 mph N10.1 kmh N 15.2 mph24.5 kmh 29.00 in982.1 mb 0.00 in0.0 mm 0.00 in0.0 mm 0.00 in0.0 mm
07:21 AM 44.2°F6.8°C 44.2°F6.8°C 100% 6.1 mph N9.8 kmh N 15.2 mph24.5 kmh 28.97 in981.0 mb 0.00 in0.0 mm 0.00 in0.0 mm 0.00 in0.0 mm
07:20 AM 44.2°F6.8°C 44.2°F6.8°C 100% 5.9 mph N9.5 kmh N 15.2 mph24.5 kmh 28.97 in981.0 mb 0.00 in0.0 mm 0.00 in0.0 mm 0.00 in0.0 mm
07:19 AM 44.1°F6.7°C 44.1°F6.7°C 100% 5.8 mph N9.3 kmh N 15.2 mph24.5 kmh 28.97 in981.0 mb 0.00 in0.0 mm 0.00 in0.0 mm 0.00 in0.0 mm
07:18 AM 44.2°F6.8°C 44.2°F6.8°C 100% 5.5 mph N8.9 kmh N 15.2 mph24.5 kmh 28.97 in981.0 mb 0.00 in0.0 mm 0.00 in0.0 mm 0.00 in0.0 mm
07:17 AM 44.1°F6.7°C 44.1°F6.7°C 100% 5.0 mph NNE8.0 kmh NNE 15.2 mph24.5 kmh 28.97 in981.0 mb 0.00 in0.0 mm 0.00 in0.0 mm 0.00 in0.0 mm
07:16 AM 44.2°F6.8°C 44.2°F6.8°C 100% 5.2 mph NNE8.4 kmh NNE 15.2 mph24.5 kmh 28.97 in981.0 mb 0.00 in0.0 mm 0.00 in0.0 mm 0.00 in0.0 mm
07:15 AM 44.2°F6.8°C 44.2°F6.8°C 100% 7.4 mph NNE11.9 kmh NNE 15.2 mph24.5 kmh 28.97 in981.0 mb 0.00 in0.0 mm 0.00 in0.0 mm 0.00 in0.0 mm
07:14 AM 44.2°F6.8°C 44.2°F6.8°C 100% 8.1 mph NNE13.0 kmh NNE 15.2 mph24.5 kmh 28.97 in981.0 mb 0.00 in0.0 mm 0.00 in0.0 mm 0.00 in0.0 mm
07:13 AM 44.2°F6.8°C 44.2°F6.8°C 100% 7.6 mph NE12.2 kmh NE 15.2 mph24.5 kmh 28.97 in981.0 mb 0.00 in0.0 mm 0.00 in0.0 mm 0.00 in0.0 mm
07:12 AM 44.2°F6.8°C 44.2°F6.8°C 100% 7.6 mph NE12.2 kmh NE 11.7 mph18.8 kmh 28.97 in981.0 mb 0.00 in0.0 mm 0.00 in0.0 mm 0.00 in0.0 mm
07:11 AM 44.2°F6.8°C 44.2°F6.8°C 100% 7.1 mph NNE11.4 kmh NNE 11.7 mph18.8 kmh 28.97 in981.0 mb 0.00 in0.0 mm 0.00 in0.0 mm 0.00 in0.0 mm
07:10 AM 44.2°F6.8°C 44.2°F6.8°C 100% 6.5 mph NNE10.5 kmh NNE 11.7 mph18.8 kmh 28.97 in981.0 mb 0.00 in0.0 mm 0.00 in0.0 mm 0.00 in0.0 mm
07:09 AM 44.2°F6.8°C 44.2°F6.8°C 100% 6.8 mph NNE10.9 kmh NNE 11.7 mph18.8 kmh 28.97 in981.0 mb 0.00 in0.0 mm 0.00 in0.0 mm 0.00 in0.0 mm
07:08 AM 44.2°F6.8°C 44.2°F6.8°C 100% 7.1 mph NNE11.4 kmh NNE 11.7 mph18.8 kmh 28.97 in981.0 mb 0.00 in0.0 mm 0.00 in0.0 mm 0.00 in0.0 mm
07:07 AM 44.2°F6.8°C 44.2°F6.8°C 100% 7.7 mph NNE12.4 kmh NNE 11.7 mph18.8 kmh 28.97 in981.0 mb 0.00 in0.0 mm 0.00 in0.0 mm 0.00 in0.0 mm
07:06 AM 44.2°F6.8°C 44.2°F6.8°C 100% 7.6 mph N12.2 kmh N 11.0 mph17.7 kmh 28.97 in981.0 mb 0.00 in0.0 mm 0.00 in0.0 mm 0.00 in0.0 mm
07:05 AM 44.2°F6.8°C 44.2°F6.8°C 100% 6.4 mph NNE10.3 kmh NNE 11.0 mph17.7 kmh 28.97 in981.0 mb 0.00 in0.0 mm 0.00 in0.0 mm 0.00 in0.0 mm
07:04 AM 44.2°F6.8°C 44.2°F6.8°C 100% 5.7 mph NNE9.2 kmh NNE 11.7 mph18.8 kmh 28.97 in981.0 mb 0.00 in0.0 mm 0.00 in0.0 mm 0.00 in0.0 mm
07:03 AM 44.2°F6.8°C 44.2°F6.8°C 100% 5.9 mph NNE9.5 kmh NNE 11.7 mph18.8 kmh 28.97 in981.0 mb 0.00 in0.0 mm 0.00 in0.0 mm 0.00 in0.0 mm
07:02 AM 44.2°F6.8°C 44.2°F6.8°C 100% 5.8 mph NNE9.3 kmh NNE 11.7 mph18.8 kmh 28.97 in981.0 mb 0.00 in0.0 mm 0.00 in0.0 mm 0.00 in0.0 mm
07:01 AM 44.2°F6.8°C 44.2°F6.8°C 100% 5.5 mph NNE8.9 kmh NNE 11.7 mph18.8 kmh 28.97 in981.0 mb 0.00 in0.0 mm 0.00 in0.0 mm 0.00 in0.0 mm
07:00 AM 44.2°F6.8°C 44.2°F6.8°C 100% 5.7 mph NNE9.2 kmh NNE 11.7 mph18.8 kmh 28.97 in981.0 mb 0.00 in0.0 mm 0.00 in0.0 mm 0.00 in0.0 mm
06:59 AM 44.2°F6.8°C 44.2°F6.8°C 100% 5.7 mph NNE9.2 kmh NNE 11.7 mph18.8 kmh 28.97 in981.0 mb 0.00 in0.0 mm 0.00 in0.0 mm 0.00 in0.0 mm
06:58 AM 44.2°F6.8°C 44.2°F6.8°C 100% 5.7 mph NNE9.2 kmh NNE 11.7 mph18.8 kmh 28.97 in981.0 mb 0.00 in0.0 mm 0.00 in0.0 mm 0.00 in0.0 mm
06:57 AM 44.2°F6.8°C 44.2°F6.8°C 100% 6.5 mph NNE10.5 kmh NNE 11.7 mph18.8 kmh 28.97 in981.0 mb 0.00 in0.0 mm 0.00 in0.0 mm 0.00 in0.0 mm
06:56 AM 44.2°F6.8°C 44.2°F6.8°C 100% 6.5 mph NNE10.5 kmh NNE 11.7 mph18.8 kmh 28.97 in981.0 mb 0.00 in0.0 mm 0.00 in0.0 mm 0.00 in0.0 mm
06:54 AM 44.2°F6.8°C 44.2°F6.8°C 100% 4.4 mph N7.1 kmh N 9.1 mph14.6 kmh 28.97 in981.0 mb 0.00 in0.0 mm 0.00 in0.0 mm 0.00 in0.0 mm
06:53 AM 44.2°F6.8°C 44.2°F6.8°C 100% 4.9 mph N7.9 kmh N 9.1 mph14.6 kmh 28.97 in981.0 mb 0.00 in0.0 mm 0.00 in0.0 mm 0.00 in0.0 mm
06:52 AM 44.2°F6.8°C 44.2°F6.8°C 100% 5.3 mph NNE8.5 kmh NNE 9.7 mph15.6 kmh 28.97 in981.0 mb 0.00 in0.0 mm 0.00 in0.0 mm 0.00 in0.0 mm
06:51 AM 44.2°F6.8°C 44.2°F6.8°C 100% 5.2 mph NNE8.4 kmh NNE 9.7 mph15.6 kmh 28.97 in981.0 mb 0.00 in0.0 mm 0.00 in0.0 mm 0.00 in0.0 mm
06:50 AM 44.2°F6.8°C 44.2°F6.8°C 100% 5.1 mph NNE8.2 kmh NNE 9.7 mph15.6 kmh 28.97 in981.0 mb 0.00 in0.0 mm 0.00 in0.0 mm 0.00 in0.0 mm
06:49 AM 44.2°F6.8°C 44.2°F6.8°C 100% 5.1 mph NNE8.2 kmh NNE 9.7 mph15.6 kmh 28.97 in981.0 mb 0.00 in0.0 mm 0.00 in0.0 mm 0.00 in0.0 mm
06:48 AM 44.4°F6.9°C 44.4°F6.9°C 100% 5.4 mph NNE8.7 kmh NNE 9.7 mph15.6 kmh 28.97 in981.0 mb 0.00 in0.0 mm 0.00 in0.0 mm 0.00 in0.0 mm
06:47 AM 44.4°F6.9°C 44.4°F6.9°C 100% 5.3 mph NE8.5 kmh NE 9.7 mph15.6 kmh 28.97 in981.0 mb 0.00 in0.0 mm 0.00 in0.0 mm 0.00 in0.0 mm
06:46 AM 44.4°F6.9°C 44.4°F6.9°C 100% 5.2 mph NE8.4 kmh NE 9.7 mph15.6 kmh 28.97 in981.0 mb 0.00 in0.0 mm 0.00 in0.0 mm 0.00 in0.0 mm
06:45 AM 44.4°F6.9°C 44.4°F6.9°C 100% 6.3 mph NE10.1 kmh NE 9.7 mph15.6 kmh 28.97 in981.0 mb 0.00 in0.0 mm 0.00 in0.0 mm 0.00 in0.0 mm
06:44 AM 44.2°F6.8°C 44.2°F6.8°C 100% 6.8 mph NNE10.9 kmh NNE 9.7 mph15.6 kmh 28.97 in981.0 mb 0.00 in0.0 mm 0.00 in0.0 mm 0.00 in0.0 mm
06:43 AM 44.4°F6.9°C 44.4°F6.9°C 100% 5.8 mph NNE9.3 kmh NNE 9.7 mph15.6 kmh 28.97 in981.0 mb 0.00 in0.0 mm 0.00 in0.0 mm 0.00 in0.0 mm
06:42 AM 44.4°F6.9°C 44.4°F6.9°C 100% 4.9 mph NE7.9 kmh NE 9.1 mph14.6 kmh 28.97 in981.0 mb 0.00 in0.0 mm 0.00 in0.0 mm 0.00 in0.0 mm
06:41 AM 44.2°F6.8°C 44.2°F6.8°C 100% 4.3 mph NE6.9 kmh NE 9.1 mph14.6 kmh 28.97 in981.0 mb 0.00 in0.0 mm 0.00 in0.0 mm 0.00 in0.0 mm
06:40 AM 44.2°F6.8°C 44.2°F6.8°C 100% 4.8 mph NE7.7 kmh NE 10.4 mph16.7 kmh 28.97 in981.0 mb 0.00 in0.0 mm 0.00 in0.0 mm 0.00 in0.0 mm
06:39 AM 44.2°F6.8°C 44.2°F6.8°C 100% 6.2 mph NE10.0 kmh NE 10.4 mph16.7 kmh 28.97 in981.0 mb 0.00 in0.0 mm 0.00 in0.0 mm 0.00 in0.0 mm
06:38 AM 44.4°F6.9°C 44.4°F6.9°C 100% 5.9 mph NE9.5 kmh NE 10.4 mph16.7 kmh 28.97 in981.0 mb 0.00 in0.0 mm 0.00 in0.0 mm 0.00 in0.0 mm
06:37 AM 44.4°F6.9°C 44.4°F6.9°C 100% 5.1 mph NE8.2 kmh NE 10.4 mph16.7 kmh 28.97 in981.0 mb 0.00 in0.0 mm 0.00 in0.0 mm 0.00 in0.0 mm
06:36 AM 44.4°F6.9°C 44.4°F6.9°C 100% 4.9 mph NE7.9 kmh NE 10.4 mph16.7 kmh 28.97 in981.0 mb 0.00 in0.0 mm 0.00 in0.0 mm 0.00 in0.0 mm
06:35 AM 44.4°F6.9°C 44.4°F6.9°C 100% 5.2 mph NE8.4 kmh NE 10.4 mph16.7 kmh 28.97 in981.0 mb 0.00 in0.0 mm 0.00 in0.0 mm 0.00 in0.0 mm
06:34 AM 44.4°F6.9°C 44.4°F6.9°C 100% 5.2 mph NE8.4 kmh NE 10.4 mph16.7 kmh 28.97 in981.0 mb 0.00 in0.0 mm 0.00 in0.0 mm 0.00 in0.0 mm
06:33 AM 44.4°F6.9°C 44.4°F6.9°C 100% 5.6 mph NNE9.0 kmh NNE 10.4 mph16.7 kmh 28.97 in981.0 mb 0.00 in0.0 mm 0.00 in0.0 mm 0.00 in0.0 mm
06:32 AM 44.6°F7.0°C 44.6°F7.0°C 100% 6.0 mph NNE9.7 kmh NNE 10.4 mph16.7 kmh 28.97 in981.0 mb 0.00 in0.0 mm 0.00 in0.0 mm 0.00 in0.0 mm
06:31 AM 44.4°F6.9°C 44.4°F6.9°C 100% 6.0 mph NE9.7 kmh NE 10.4 mph16.7 kmh 28.97 in981.0 mb 0.00 in0.0 mm 0.00 in0.0 mm 0.00 in0.0 mm
06:30 AM 44.4°F6.9°C 44.4°F6.9°C 100% 5.5 mph NE8.9 kmh NE 10.4 mph16.7 kmh 28.97 in981.0 mb 0.00 in0.0 mm 0.00 in0.0 mm 0.00 in0.0 mm
06:29 AM 44.4°F6.9°C 44.4°F6.9°C 100% 5.1 mph NE8.2 kmh NE 9.1 mph14.6 kmh 28.97 in981.0 mb 0.00 in0.0 mm 0.00 in0.0 mm 0.00 in0.0 mm
06:28 AM 44.4°F6.9°C 44.4°F6.9°C 100% 5.6 mph NE9.0 kmh NE 9.1 mph14.6 kmh 28.97 in981.0 mb 0.00 in0.0 mm 0.00 in0.0 mm 0.00 in0.0 mm
06:27 AM 44.4°F6.9°C 44.4°F6.9°C 100% 6.1 mph NE9.8 kmh NE 9.1 mph14.6 kmh 28.97 in981.0 mb 0.00 in0.0 mm 0.00 in0.0 mm 0.00 in0.0 mm
06:26 AM 44.4°F6.9°C 44.4°F6.9°C 100% 5.9 mph NE9.5 kmh NE 9.1 mph14.6 kmh 28.97 in981.0 mb 0.00 in0.0 mm 0.00 in0.0 mm 0.00 in0.0 mm
06:25 AM 44.4°F6.9°C 44.4°F6.9°C 100% 5.9 mph NNE9.5 kmh NNE 9.1 mph14.6 kmh 28.97 in981.0 mb 0.00 in0.0 mm 0.00 in0.0 mm 0.00 in0.0 mm
06:24 AM 44.4°F6.9°C 44.4°F6.9°C 100% 5.1 mph NNE8.2 kmh NNE 9.1 mph14.6 kmh 28.97 in981.0 mb 0.00 in0.0 mm 0.00 in0.0 mm 0.00 in0.0 mm
06:23 AM 44.6°F7.0°C 44.6°F7.0°C 100% 4.2 mph NE6.8 kmh NE 9.1 mph14.6 kmh 28.97 in981.0 mb 0.00 in0.0 mm 0.00 in0.0 mm 0.00 in0.0 mm
06:22 AM 44.4°F6.9°C 44.4°F6.9°C 100% 4.4 mph NE7.1 kmh NE 7.8 mph12.6 kmh 28.97 in981.0 mb 0.00 in0.0 mm 0.00 in0.0 mm 0.00 in0.0 mm
06:21 AM 44.4°F6.9°C 44.4°F6.9°C 100% 4.4 mph NE7.1 kmh NE 7.8 mph12.6 kmh 28.97 in981.0 mb 0.00 in0.0 mm 0.00 in0.0 mm 0.00 in0.0 mm
06:20 AM 44.4°F6.9°C 44.4°F6.9°C 100% 4.0 mph NE6.4 kmh NE 7.1 mph11.4 kmh 28.97 in981.0 mb 0.00 in0.0 mm 0.00 in0.0 mm 0.00 in0.0 mm
06:19 AM 44.4°F6.9°C 44.4°F6.9°C 100% 3.7 mph NNE6.0 kmh NNE 7.1 mph11.4 kmh 28.97 in981.0 mb 0.00 in0.0 mm 0.00 in0.0 mm 0.00 in0.0 mm
06:18 AM 44.6°F7.0°C 44.6°F7.0°C 100% 3.7 mph NNE6.0 kmh NNE 7.1 mph11.4 kmh 28.97 in981.0 mb 0.00 in0.0 mm 0.00 in0.0 mm 0.00 in0.0 mm
06:17 AM 44.4°F6.9°C 44.4°F6.9°C 100% 3.9 mph NNE6.3 kmh NNE 7.1 mph11.4 kmh 28.97 in981.0 mb 0.00 in0.0 mm 0.00 in0.0 mm 0.00 in0.0 mm
06:16 AM 44.4°F6.9°C 44.4°F6.9°C 100% 4.0 mph NNE6.4 kmh NNE 9.1 mph14.6 kmh 28.97 in981.0 mb 0.00 in0.0 mm 0.00 in0.0 mm 0.00 in0.0 mm
06:15 AM 44.4°F6.9°C 44.4°F6.9°C 100% 4.2 mph NNE6.8 kmh NNE 9.1 mph14.6 kmh 28.97 in981.0 mb 0.00 in0.0 mm 0.00 in0.0 mm 0.00 in0.0 mm
06:14 AM 44.4°F6.9°C 44.4°F6.9°C 100% 4.4 mph NNE7.1 kmh NNE 9.1 mph14.6 kmh 28.97 in981.0 mb 0.00 in0.0 mm 0.00 in0.0 mm 0.00 in0.0 mm
06:13 AM 44.4°F6.9°C 44.4°F6.9°C 100% 4.4 mph NNE7.1 kmh NNE 9.1 mph14.6 kmh 28.97 in981.0 mb 0.00 in0.0 mm 0.00 in0.0 mm 0.00 in0.0 mm
06:12 AM 44.4°F6.9°C 44.4°F6.9°C 100% 4.3 mph NNE6.9 kmh NNE 9.1 mph14.6 kmh 28.97 in981.0 mb 0.00 in0.0 mm 0.00 in0.0 mm 0.00 in0.0 mm
06:11 AM 44.4°F6.9°C 44.4°F6.9°C 100% 3.8 mph NE6.1 kmh NE 9.1 mph14.6 kmh 28.97 in981.0 mb 0.00 in0.0 mm 0.00 in0.0 mm 0.00 in0.0 mm
06:10 AM 44.4°F6.9°C 44.4°F6.9°C 100% 3.4 mph NE5.5 kmh NE 9.1 mph14.6 kmh 28.97 in981.0 mb 0.00 in0.0 mm 0.00 in0.0 mm 0.00 in0.0 mm
06:09 AM 44.4°F6.9°C 44.4°F6.9°C 100% 4.5 mph NE7.2 kmh NE 9.1 mph14.6 kmh 28.97 in981.0 mb 0.00 in0.0 mm 0.00 in0.0 mm 0.00 in0.0 mm
06:08 AM 44.4°F6.9°C 44.4°F6.9°C 100% 5.8 mph NE9.3 kmh NE 9.1 mph14.6 kmh 28.97 in981.0 mb 0.00 in0.0 mm 0.00 in0.0 mm 0.00 in0.0 mm
06:07 AM 44.4°F6.9°C 44.4°F6.9°C 100% 5.8 mph NE9.3 kmh NE 9.1 mph14.6 kmh 28.97 in981.0 mb 0.00 in0.0 mm 0.00 in0.0 mm 0.00 in0.0 mm
06:06 AM 44.4°F6.9°C 44.4°F6.9°C 100% 4.3 mph NE6.9 kmh NE 9.1 mph14.6 kmh 28.97 in981.0 mb 0.00 in0.0 mm 0.00 in0.0 mm 0.00 in0.0 mm
06:05 AM 44.4°F6.9°C 44.4°F6.9°C 100% 3.5 mph NE5.6 kmh NE 9.1 mph14.6 kmh 28.97 in981.0 mb 0.00 in0.0 mm 0.00 in0.0 mm 0.00 in0.0 mm
06:04 AM 44.4°F6.9°C 44.4°F6.9°C 100% 3.7 mph NE6.0 kmh NE 9.1 mph14.6 kmh 28.97 in981.0 mb 0.00 in0.0 mm 0.00 in0.0 mm 0.00 in0.0 mm
06:03 AM 44.4°F6.9°C 44.4°F6.9°C 100% 4.6 mph ENE7.4 kmh ENE 9.1 mph14.6 kmh 28.97 in981.0 mb 0.00 in0.0 mm 0.00 in0.0 mm 0.00 in0.0 mm
06:02 AM 44.4°F6.9°C 44.4°F6.9°C 100% 5.4 mph ENE8.7 kmh ENE 9.1 mph14.6 kmh 28.97 in981.0 mb 0.00 in0.0 mm 0.00 in0.0 mm 0.00 in0.0 mm
06:01 AM 44.6°F7.0°C 44.3°F6.8°C 99% 5.0 mph NE8.0 kmh NE 9.1 mph14.6 kmh 28.97 in981.0 mb 0.00 in0.0 mm 0.00 in0.0 mm 0.00 in0.0 mm
06:00 AM 44.4°F6.9°C 44.4°F6.9°C 100% 5.6 mph NE9.0 kmh NE 9.1 mph14.6 kmh 28.97 in981.0 mb 0.00 in0.0 mm 0.00 in0.0 mm 0.00 in0.0 mm
05:59 AM 44.4°F6.9°C 44.4°F6.9°C 100% 6.3 mph NE10.1 kmh NE 9.1 mph14.6 kmh 28.97 in981.0 mb 0.00 in0.0 mm 0.00 in0.0 mm 0.00 in0.0 mm
05:58 AM 44.4°F6.9°C 44.4°F6.9°C 100% 6.1 mph NE9.8 kmh NE 9.1 mph14.6 kmh 28.97 in981.0 mb 0.00 in0.0 mm 0.00 in0.0 mm 0.00 in0.0 mm
05:57 AM 44.6°F7.0°C 44.3°F6.8°C 99% 5.9 mph NE9.5 kmh NE 9.1 mph14.6 kmh 28.97 in981.0 mb 0.00 in0.0 mm 0.00 in0.0 mm 0.00 in0.0 mm
05:56 AM 44.6°F7.0°C 44.3°F6.8°C 99% 5.7 mph NE9.2 kmh NE 9.1 mph14.6 kmh 28.97 in981.0 mb 0.00 in0.0 mm 0.00 in0.0 mm 0.00 in0.0 mm
05:55 AM 44.6°F7.0°C 44.3°F6.8°C 99% 4.7 mph NE7.6 kmh NE 9.1 mph14.6 kmh 28.97 in981.0 mb 0.00 in0.0 mm 0.00 in0.0 mm 0.00 in0.0 mm
05:54 AM 44.4°F6.9°C 44.1°F6.7°C 99% 4.5 mph NE7.2 kmh NE 9.1 mph14.6 kmh 28.97 in981.0 mb 0.00 in0.0 mm 0.00 in0.0 mm 0.00 in0.0 mm
05:53 AM 44.6°F7.0°C 44.3°F6.8°C 99% 4.9 mph NE7.9 kmh NE 11.7 mph18.8 kmh 28.97 in981.0 mb 0.00 in0.0 mm 0.00 in0.0 mm 0.00 in0.0 mm
05:52 AM 44.4°F6.9°C 44.1°F6.7°C 99% 5.4 mph NE8.7 kmh NE 11.7 mph18.8 kmh 28.97 in981.0 mb 0.00 in0.0 mm 0.00 in0.0 mm 0.00 in0.0 mm
05:51 AM 44.6°F7.0°C 44.3°F6.8°C 99% 5.5 mph NE8.9 kmh NE 11.7 mph18.8 kmh 28.97 in981.0 mb 0.00 in0.0 mm 0.00 in0.0 mm 0.00 in0.0 mm
05:50 AM 44.6°F7.0°C 44.3°F6.8°C 99% 5.5 mph NE8.9 kmh NE 11.7 mph18.8 kmh 28.97 in981.0 mb 0.00 in0.0 mm 0.00 in0.0 mm 0.00 in0.0 mm
05:49 AM 44.4°F6.9°C 44.1°F6.7°C 99% 6.1 mph NE9.8 kmh NE 11.7 mph18.8 kmh 28.97 in981.0 mb 0.00 in0.0 mm 0.00 in0.0 mm 0.00 in0.0 mm
05:48 AM 44.4°F6.9°C 44.1°F6.7°C 99% 6.2 mph ENE10.0 kmh ENE 11.7 mph18.8 kmh 28.97 in981.0 mb 0.00 in0.0 mm 0.00 in0.0 mm 0.00 in0.0 mm
05:47 AM 44.4°F6.9°C 44.1°F6.7°C 99% 6.2 mph ENE10.0 kmh ENE 11.7 mph18.8 kmh 28.97 in981.0 mb 0.00 in0.0 mm 0.00 in0.0 mm 0.00 in0.0 mm
05:46 AM 44.4°F6.9°C 44.1°F6.7°C 99% 6.4 mph NE10.3 kmh NE 11.7 mph18.8 kmh 28.97 in981.0 mb 0.00 in0.0 mm 0.00 in0.0 mm 0.00 in0.0 mm
05:45 AM 44.4°F6.9°C 44.1°F6.7°C 99% 5.3 mph NE8.5 kmh NE 11.7 mph18.8 kmh 28.97 in981.0 mb 0.00 in0.0 mm 0.00 in0.0 mm 0.00 in0.0 mm
05:44 AM 44.4°F6.9°C 44.1°F6.7°C 99% 3.9 mph ENE6.3 kmh ENE 11.7 mph18.8 kmh 28.97 in981.0 mb 0.00 in0.0 mm 0.00 in0.0 mm 0.00 in0.0 mm
05:43 AM 44.4°F6.9°C 44.1°F6.7°C 99% 3.4 mph E5.5 kmh E 11.7 mph18.8 kmh 28.97 in981.0 mb 0.00 in0.0 mm 0.00 in0.0 mm 0.00 in0.0 mm
05:42 AM 44.4°F6.9°C 44.1°F6.7°C 99% 3.4 mph E5.5 kmh E 11.7 mph18.8 kmh 28.97 in981.0 mb 0.00 in0.0 mm 0.00 in0.0 mm 0.00 in0.0 mm
05:41 AM 44.4°F6.9°C 44.1°F6.7°C 99% 4.5 mph ENE7.2 kmh ENE 11.7 mph18.8 kmh 28.97 in981.0 mb 0.00 in0.0 mm 0.00 in0.0 mm 0.00 in0.0 mm
05:40 AM 44.4°F6.9°C 44.1°F6.7°C 99% 5.8 mph ENE9.3 kmh ENE 11.7 mph18.8 kmh 28.97 in981.0 mb 0.00 in0.0 mm 0.00 in0.0 mm 0.00 in0.0 mm
05:39 AM 44.4°F6.9°C 44.1°F6.7°C 99% 6.4 mph ENE10.3 kmh ENE 11.7 mph18.8 kmh 28.97 in981.0 mb 0.00 in0.0 mm 0.00 in0.0 mm 0.00 in0.0 mm
05:38 AM 44.4°F6.9°C 44.1°F6.7°C 99% 6.5 mph ENE10.5 kmh ENE 11.7 mph18.8 kmh 28.97 in981.0 mb 0.00 in0.0 mm 0.00 in0.0 mm 0.00 in0.0 mm
05:37 AM 44.4°F6.9°C 44.1°F6.7°C 99% 6.6 mph ENE10.6 kmh ENE 11.7 mph18.8 kmh 28.97 in981.0 mb 0.00 in0.0 mm 0.00 in0.0 mm 0.00 in0.0 mm
05:36 AM 44.4°F6.9°C 44.1°F6.7°C 99% 6.9 mph ENE11.1 kmh ENE 11.7 mph18.8 kmh 28.97 in981.0 mb 0.00 in0.0 mm 0.00 in0.0 mm 0.00 in0.0 mm
05:35 AM 44.4°F6.9°C 44.1°F6.7°C 99% 6.9 mph ENE11.1 kmh ENE 11.7 mph18.8 kmh 28.97 in981.0 mb 0.00 in0.0 mm 0.00 in0.0 mm 0.00 in0.0 mm
05:34 AM 44.4°F6.9°C 44.1°F6.7°C 99% 6.7 mph ENE10.8 kmh ENE 11.7 mph18.8 kmh 28.97 in981.0 mb 0.00 in0.0 mm 0.00 in0.0 mm 0.00 in0.0 mm
05:33 AM 44.4°F6.9°C 44.1°F6.7°C 99% 6.4 mph ENE10.3 kmh ENE 11.0 mph17.7 kmh 28.97 in981.0 mb 0.00 in0.0 mm 0.00 in0.0 mm 0.00 in0.0 mm
05:32 AM 44.4°F6.9°C 44.1°F6.7°C 99% 5.8 mph ENE9.3 kmh ENE 11.0 mph17.7 kmh 28.97 in981.0 mb 0.00 in0.0 mm 0.00 in0.0 mm 0.00 in0.0 mm
05:31 AM 44.4°F6.9°C 44.1°F6.7°C 99% 4.9 mph ENE7.9 kmh ENE 11.0 mph17.7 kmh 28.97 in981.0 mb 0.00 in0.0 mm 0.00 in0.0 mm 0.00 in0.0 mm
05:30 AM 44.4°F6.9°C 44.1°F6.7°C 99% 4.6 mph E7.4 kmh E 11.0 mph17.7 kmh 28.97 in981.0 mb 0.00 in0.0 mm 0.00 in0.0 mm 0.00 in0.0 mm
05:29 AM 44.4°F6.9°C 44.1°F6.7°C 99% 5.1 mph E8.2 kmh E 11.0 mph17.7 kmh 28.97 in981.0 mb 0.00 in0.0 mm 0.00 in0.0 mm 0.00 in0.0 mm
05:28 AM 44.4°F6.9°C 44.1°F6.7°C 99% 5.9 mph ENE9.5 kmh ENE 11.0 mph17.7 kmh 28.97 in981.0 mb 0.00 in0.0 mm 0.00 in0.0 mm 0.00 in0.0 mm
05:27 AM 44.4°F6.9°C 44.1°F6.7°C 99% 6.2 mph ENE10.0 kmh ENE 11.0 mph17.7 kmh 28.97 in981.0 mb 0.00 in0.0 mm 0.00 in0.0 mm 0.00 in0.0 mm
05:26 AM 44.4°F6.9°C 44.1°F6.7°C 99% 6.2 mph ENE10.0 kmh ENE 11.0 mph17.7 kmh 28.97 in981.0 mb 0.00 in0.0 mm 0.00 in0.0 mm 0.00 in0.0 mm
05:25 AM 44.4°F6.9°C 44.1°F6.7°C 99% 5.8 mph ENE9.3 kmh ENE 11.0 mph17.7 kmh 28.97 in981.0 mb 0.00 in0.0 mm 0.00 in0.0 mm 0.00 in0.0 mm
05:24 AM 44.4°F6.9°C 44.1°F6.7°C 99% 6.0 mph ENE9.7 kmh ENE 11.0 mph17.7 kmh 28.97 in981.0 mb 0.00 in0.0 mm 0.00 in0.0 mm 0.00 in0.0 mm
05:23 AM 44.4°F6.9°C 44.1°F6.7°C 99% 6.2 mph E10.0 kmh E 10.4 mph16.7 kmh 28.97 in981.0 mb 0.00 in0.0 mm 0.00 in0.0 mm 0.00 in0.0 mm
05:22 AM 44.4°F6.9°C 44.1°F6.7°C 99% 5.4 mph ENE8.7 kmh ENE 11.0 mph17.7 kmh 28.97 in981.0 mb 0.00 in0.0 mm 0.00 in0.0 mm 0.00 in0.0 mm
05:21 AM 44.2°F6.8°C 43.9°F6.6°C 99% 4.4 mph ENE7.1 kmh ENE 11.0 mph17.7 kmh 28.97 in981.0 mb 0.00 in0.0 mm 0.00 in0.0 mm 0.00 in0.0 mm
05:18 AM 44.4°F6.9°C 44.1°F6.7°C 99% 5.6 mph ENE9.0 kmh ENE 11.0 mph17.7 kmh 28.97 in981.0 mb 0.00 in0.0 mm 0.00 in0.0 mm 0.00 in0.0 mm
05:17 AM 44.2°F6.8°C 43.9°F6.6°C 99% 6.4 mph ENE10.3 kmh ENE 11.0 mph17.7 kmh 28.97 in981.0 mb 0.00 in0.0 mm 0.00 in0.0 mm 0.00 in0.0 mm
05:16 AM 44.2°F6.8°C 43.9°F6.6°C 99% 6.9 mph ENE11.1 kmh ENE 11.0 mph17.7 kmh 28.97 in981.0 mb 0.00 in0.0 mm 0.00 in0.0 mm 0.00 in0.0 mm
05:15 AM 44.4°F6.9°C 44.1°F6.7°C 99% 6.8 mph ENE10.9 kmh ENE 11.0 mph17.7 kmh 28.97 in981.0 mb 0.00 in0.0 mm 0.00 in0.0 mm 0.00 in0.0 mm
05:14 AM 44.2°F6.8°C 44.0°F6.7°C 99% 7.2 mph ENE11.6 kmh ENE 11.7 mph18.8 kmh 28.97 in981.0 mb 0.00 in0.0 mm 0.00 in0.0 mm 0.00 in0.0 mm
05:13 AM 44.2°F6.8°C 44.0°F6.7°C 99% 7.2 mph ENE11.6 kmh ENE 11.7 mph18.8 kmh 28.97 in981.0 mb 0.00 in0.0 mm 0.00 in0.0 mm 0.00 in0.0 mm
05:12 AM 44.2°F6.8°C 44.0°F6.7°C 99% 6.4 mph ENE10.3 kmh ENE 11.7 mph18.8 kmh 28.97 in981.0 mb 0.00 in0.0 mm 0.00 in0.0 mm 0.00 in0.0 mm
05:11 AM 44.2°F6.8°C 44.0°F6.7°C 99% 6.2 mph ENE10.0 kmh ENE 11.7 mph18.8 kmh 28.97 in981.0 mb 0.00 in0.0 mm 0.00 in0.0 mm 0.00 in0.0 mm
05:10 AM 44.4°F6.9°C 44.2°F6.8°C 99% 6.8 mph ENE10.9 kmh ENE 11.7 mph18.8 kmh 28.97 in981.0 mb 0.00 in0.0 mm 0.00 in0.0 mm 0.00 in0.0 mm
05:09 AM 44.2°F6.8°C 44.0°F6.7°C 99% 7.5 mph ENE12.1 kmh ENE 11.7 mph18.8 kmh 28.97 in981.0 mb 0.00 in0.0 mm 0.00 in0.0 mm 0.00 in0.0 mm
05:08 AM 44.4°F6.9°C 44.2°F6.8°C 99% 7.6 mph ENE12.2 kmh ENE 11.7 mph18.8 kmh 28.97 in981.0 mb 0.00 in0.0 mm 0.00 in0.0 mm 0.00 in0.0 mm
05:07 AM 44.2°F6.8°C 44.0°F6.7°C 99% 7.6 mph ENE12.2 kmh ENE 11.7 mph18.8 kmh 28.97 in981.0 mb 0.00 in0.0 mm 0.00 in0.0 mm 0.00 in0.0 mm
05:06 AM 44.4°F6.9°C 44.2°F6.8°C 99% 7.0 mph ENE11.3 kmh ENE 11.7 mph18.8 kmh 28.97 in981.0 mb 0.00 in0.0 mm 0.00 in0.0 mm 0.00 in0.0 mm
05:05 AM 44.4°F6.9°C 44.2°F6.8°C 99% 5.6 mph ENE9.0 kmh ENE 11.7 mph18.8 kmh 28.97 in981.0 mb 0.00 in0.0 mm 0.00 in0.0 mm 0.00 in0.0 mm
05:04 AM 44.4°F6.9°C 44.2°F6.8°C 99% 5.6 mph ENE9.0 kmh ENE 9.1 mph14.6 kmh 28.97 in981.0 mb 0.00 in0.0 mm 0.00 in0.0 mm 0.00 in0.0 mm
05:03 AM 44.4°F6.9°C 44.2°F6.8°C 99% 5.8 mph ENE9.3 kmh ENE 11.7 mph18.8 kmh 28.97 in981.0 mb 0.00 in0.0 mm 0.00 in0.0 mm 0.00 in0.0 mm
05:02 AM 44.4°F6.9°C 44.4°F6.9°C 100% 6.0 mph ENE9.7 kmh ENE 11.7 mph18.8 kmh 28.97 in981.0 mb 0.00 in0.0 mm 0.00 in0.0 mm 0.00 in0.0 mm
05:01 AM 44.4°F6.9°C 44.4°F6.9°C 100% 6.4 mph ENE10.3 kmh ENE 11.7 mph18.8 kmh 28.97 in981.0 mb 0.00 in0.0 mm 0.00 in0.0 mm 0.00 in0.0 mm
05:00 AM 44.4°F6.9°C 44.4°F6.9°C 100% 6.5 mph ENE10.5 kmh ENE 11.7 mph18.8 kmh 28.97 in981.0 mb 0.00 in0.0 mm 0.00 in0.0 mm 0.00 in0.0 mm
04:59 AM 44.4°F6.9°C 44.4°F6.9°C 100% 6.0 mph ENE9.7 kmh ENE 11.7 mph18.8 kmh 28.97 in981.0 mb 0.00 in0.0 mm 0.00 in0.0 mm 0.00 in0.0 mm
04:58 AM 44.4°F6.9°C 44.4°F6.9°C 100% 5.5 mph ENE8.9 kmh ENE 11.7 mph18.8 kmh 28.97 in981.0 mb 0.00 in0.0 mm 0.00 in0.0 mm 0.00 in0.0 mm
04:57 AM 44.4°F6.9°C 44.4°F6.9°C 100% 5.3 mph ENE8.5 kmh ENE 11.7 mph18.8 kmh 28.97 in981.0 mb 0.00 in0.0 mm 0.00 in0.0 mm 0.00 in0.0 mm
04:56 AM 44.4°F6.9°C 44.4°F6.9°C 100% 6.7 mph ENE10.8 kmh ENE 11.7 mph18.8 kmh 28.97 in981.0 mb 0.00 in0.0 mm 0.00 in0.0 mm 0.00 in0.0 mm
04:55 AM 44.4°F6.9°C 44.4°F6.9°C 100% 7.8 mph ENE12.6 kmh ENE 11.7 mph18.8 kmh 28.97 in981.0 mb 0.00 in0.0 mm 0.00 in0.0 mm 0.00 in0.0 mm
04:54 AM 44.4°F6.9°C 44.4°F6.9°C 100% 7.4 mph ENE11.9 kmh ENE 11.7 mph18.8 kmh 28.97 in981.0 mb 0.00 in0.0 mm 0.00 in0.0 mm 0.00 in0.0 mm
04:53 AM 44.2°F6.8°C 44.2°F6.8°C 100% 6.4 mph ENE10.3 kmh ENE 11.7 mph18.8 kmh 28.97 in981.0 mb 0.00 in0.0 mm 0.00 in0.0 mm 0.00 in0.0 mm
04:52 AM 44.4°F6.9°C 44.4°F6.9°C 100% 4.5 mph ENE7.2 kmh ENE 11.0 mph17.7 kmh 28.97 in981.0 mb 0.00 in0.0 mm 0.00 in0.0 mm 0.00 in0.0 mm
04:51 AM 44.4°F6.9°C 44.4°F6.9°C 100% 4.3 mph ENE6.9 kmh ENE 11.0 mph17.7 kmh 28.97 in981.0 mb 0.00 in0.0 mm 0.00 in0.0 mm 0.00 in0.0 mm
04:50 AM 44.4°F6.9°C 44.4°F6.9°C 100% 4.7 mph ENE7.6 kmh ENE 11.0 mph17.7 kmh 28.97 in981.0 mb 0.00 in0.0 mm 0.00 in0.0 mm 0.00 in0.0 mm
04:49 AM 44.2°F6.8°C 44.2°F6.8°C 100% 5.2 mph ENE8.4 kmh ENE 11.0 mph17.7 kmh 28.97 in981.0 mb 0.00 in0.0 mm 0.00 in0.0 mm 0.00 in0.0 mm
04:48 AM 44.4°F6.9°C 44.4°F6.9°C 100% 5.7 mph NE9.2 kmh NE 11.0 mph17.7 kmh 28.97 in981.0 mb 0.00 in0.0 mm 0.00 in0.0 mm 0.00 in0.0 mm
04:47 AM 44.4°F6.9°C 44.4°F6.9°C 100% 6.3 mph NE10.1 kmh NE 11.0 mph17.7 kmh 28.97 in981.0 mb 0.00 in0.0 mm 0.00 in0.0 mm 0.00 in0.0 mm
04:46 AM 44.4°F6.9°C 44.2°F6.8°C 99% 6.7 mph NE10.8 kmh NE 11.0 mph17.7 kmh 28.97 in981.0 mb 0.00 in0.0 mm 0.00 in0.0 mm 0.00 in0.0 mm
04:45 AM 44.4°F6.9°C 44.2°F6.8°C 99% 6.4 mph NE10.3 kmh NE 11.0 mph17.7 kmh 28.97 in981.0 mb 0.00 in0.0 mm 0.00 in0.0 mm 0.00 in0.0 mm
04:44 AM 44.4°F6.9°C 44.2°F6.8°C 99% 5.9 mph NE9.5 kmh NE 11.0 mph17.7 kmh 28.97 in981.0 mb 0.00 in0.0 mm 0.00 in0.0 mm 0.00 in0.0 mm
04:43 AM 44.6°F7.0°C 44.4°F6.9°C 99% 5.2 mph NE8.4 kmh NE 11.0 mph17.7 kmh 28.97 in981.0 mb 0.00 in0.0 mm 0.00 in0.0 mm 0.00 in0.0 mm
04:42 AM 44.4°F6.9°C 44.2°F6.8°C 99% 6.0 mph NE9.7 kmh NE 11.0 mph17.7 kmh 28.97 in981.0 mb 0.00 in0.0 mm 0.00 in0.0 mm 0.00 in0.0 mm
04:41 AM 44.4°F6.9°C 44.2°F6.8°C 99% 6.9 mph NE11.1 kmh NE 11.0 mph17.7 kmh 28.97 in981.0 mb 0.00 in0.0 mm 0.00 in0.0 mm 0.00 in0.0 mm
04:40 AM 44.4°F6.9°C 44.2°F6.8°C 99% 5.9 mph NE9.5 kmh NE 11.0 mph17.7 kmh 28.97 in981.0 mb 0.00 in0.0 mm 0.00 in0.0 mm 0.00 in0.0 mm
04:39 AM 44.4°F6.9°C 44.2°F6.8°C 99% 4.9 mph ENE7.9 kmh ENE 11.0 mph17.7 kmh 28.97 in981.0 mb 0.00 in0.0 mm 0.00 in0.0 mm 0.00 in0.0 mm
04:38 AM 44.6°F7.0°C 44.4°F6.9°C 99% 4.5 mph NE7.2 kmh NE 8.4 mph13.5 kmh 28.97 in981.0 mb 0.00 in0.0 mm 0.00 in0.0 mm 0.00 in0.0 mm
04:37 AM 44.6°F7.0°C 44.4°F6.9°C 99% 5.1 mph NNE8.2 kmh NNE 8.4 mph13.5 kmh 28.97 in981.0 mb 0.00 in0.0 mm 0.00 in0.0 mm 0.00 in0.0 mm
04:36 AM 44.6°F7.0°C 44.1°F6.7°C 98% 4.9 mph NE7.9 kmh NE 8.4 mph13.5 kmh 28.97 in981.0 mb 0.00 in0.0 mm 0.00 in0.0 mm 0.00 in0.0 mm
04:35 AM 44.6°F7.0°C 44.1°F6.7°C 98% 4.7 mph NE7.6 kmh NE 8.4 mph13.5 kmh 28.97 in981.0 mb 0.00 in0.0 mm 0.00 in0.0 mm 0.00 in0.0 mm
04:34 AM 44.6°F7.0°C 44.1°F6.7°C 98% 4.9 mph NE7.9 kmh NE 8.4 mph13.5 kmh 28.97 in981.0 mb 0.00 in0.0 mm 0.00 in0.0 mm 0.00 in0.0 mm
04:33 AM 44.6°F7.0°C 44.1°F6.7°C 98% 4.7 mph NE7.6 kmh NE 9.7 mph15.6 kmh 28.97 in981.0 mb 0.00 in0.0 mm 0.00 in0.0 mm 0.00 in0.0 mm
04:32 AM 44.6°F7.0°C 44.1°F6.7°C 98% 4.6 mph NE7.4 kmh NE 9.7 mph15.6 kmh 28.97 in981.0 mb 0.00 in0.0 mm 0.00 in0.0 mm 0.00 in0.0 mm
04:31 AM 44.6°F7.0°C 44.1°F6.7°C 98% 4.9 mph NE7.9 kmh NE 9.7 mph15.6 kmh 28.97 in981.0 mb 0.00 in0.0 mm 0.00 in0.0 mm 0.00 in0.0 mm
04:30 AM 44.6°F7.0°C 44.1°F6.7°C 98% 4.6 mph NE7.4 kmh NE 9.7 mph15.6 kmh 28.97 in981.0 mb 0.00 in0.0 mm 0.00 in0.0 mm 0.00 in0.0 mm
04:29 AM 44.6°F7.0°C 44.1°F6.7°C 98% 3.3 mph ENE5.3 kmh ENE 9.7 mph15.6 kmh 28.97 in981.0 mb 0.00 in0.0 mm 0.00 in0.0 mm 0.00 in0.0 mm
04:28 AM 44.6°F7.0°C 44.1°F6.7°C 98% 3.0 mph NE4.8 kmh NE 9.7 mph15.6 kmh 28.97 in981.0 mb 0.00 in0.0 mm 0.00 in0.0 mm 0.00 in0.0 mm
04:27 AM 44.6°F7.0°C 44.1°F6.7°C 98% 3.0 mph NE4.8 kmh NE 9.7 mph15.6 kmh 28.97 in981.0 mb 0.00 in0.0 mm 0.00 in0.0 mm 0.00 in0.0 mm
04:26 AM 44.6°F7.0°C 44.1°F6.7°C 98% 5.1 mph NE8.2 kmh NE 9.7 mph15.6 kmh 28.97 in981.0 mb 0.00 in0.0 mm 0.00 in0.0 mm 0.00 in0.0 mm
04:25 AM 44.6°F7.0°C 44.1°F6.7°C 98% 5.9 mph NE9.5 kmh NE 9.7 mph15.6 kmh 28.97 in981.0 mb 0.00 in0.0 mm 0.00 in0.0 mm 0.00 in0.0 mm
04:24 AM 44.6°F7.0°C 44.1°F6.7°C 98% 5.6 mph NE9.0 kmh NE 9.7 mph15.6 kmh 28.97 in981.0 mb 0.00 in0.0 mm 0.00 in0.0 mm 0.00 in0.0 mm
04:23 AM 44.6°F7.0°C 44.1°F6.7°C 98% 5.0 mph NE8.0 kmh NE 11.7 mph18.8 kmh 28.97 in981.0 mb 0.00 in0.0 mm 0.00 in0.0 mm 0.00 in0.0 mm
04:22 AM 44.6°F7.0°C 44.1°F6.7°C 98% 5.7 mph NE9.2 kmh NE 11.7 mph18.8 kmh 28.97 in981.0 mb 0.00 in0.0 mm 0.00 in0.0 mm 0.00 in0.0 mm
04:21 AM 44.6°F7.0°C 44.1°F6.7°C 98% 5.5 mph NE8.9 kmh NE 11.7 mph18.8 kmh 28.97 in981.0 mb 0.00 in0.0 mm 0.00 in0.0 mm 0.00 in0.0 mm
04:20 AM 44.6°F7.0°C 44.1°F6.7°C 98% 5.1 mph NE8.2 kmh NE 11.7 mph18.8 kmh 28.97 in981.0 mb 0.00 in0.0 mm 0.00 in0.0 mm 0.00 in0.0 mm
04:19 AM 44.6°F7.0°C 44.1°F6.7°C 98% 5.3 mph NE8.5 kmh NE 11.7 mph18.8 kmh 28.97 in981.0 mb 0.00 in0.0 mm 0.00 in0.0 mm 0.00 in0.0 mm
04:18 AM 44.6°F7.0°C 44.1°F6.7°C 98% 5.7 mph NE9.2 kmh NE 11.7 mph18.8 kmh 28.97 in981.0 mb 0.00 in0.0 mm 0.00 in0.0 mm 0.00 in0.0 mm
04:17 AM 44.6°F7.0°C 44.1°F6.7°C 98% 5.3 mph NE8.5 kmh NE 11.7 mph18.8 kmh 28.97 in981.0 mb 0.00 in0.0 mm 0.00 in0.0 mm 0.00 in0.0 mm
04:16 AM 44.6°F7.0°C 44.1°F6.7°C 98% 5.2 mph NE8.4 kmh NE 11.7 mph18.8 kmh 28.97 in981.0 mb 0.00 in0.0 mm 0.00 in0.0 mm 0.00 in0.0 mm
04:15 AM 44.8°F7.1°C 44.3°F6.8°C 98% 6.4 mph NE10.3 kmh NE 11.7 mph18.8 kmh 28.97 in981.0 mb 0.00 in0.0 mm 0.00 in0.0 mm 0.00 in0.0 mm
04:14 AM 44.6°F7.0°C 44.1°F6.7°C 98% 6.1 mph NE9.8 kmh NE 11.7 mph18.8 kmh 28.97 in981.0 mb 0.00 in0.0 mm 0.00 in0.0 mm 0.00 in0.0 mm
04:13 AM 44.6°F7.0°C 44.1°F6.7°C 98% 3.6 mph NNE5.8 kmh NNE 11.7 mph18.8 kmh 28.97 in981.0 mb 0.00 in0.0 mm 0.00 in0.0 mm 0.00 in0.0 mm
04:12 AM 44.6°F7.0°C 44.1°F6.7°C 98% 3.3 mph NE5.3 kmh NE 11.0 mph17.7 kmh 28.97 in981.0 mb 0.00 in0.0 mm 0.00 in0.0 mm 0.00 in0.0 mm
04:11 AM 44.6°F7.0°C 44.1°F6.7°C 98% 3.7 mph NE6.0 kmh NE 11.0 mph17.7 kmh 28.97 in981.0 mb 0.00 in0.0 mm 0.00 in0.0 mm 0.00 in0.0 mm
04:10 AM 44.8°F7.1°C 44.0°F6.7°C 97% 4.9 mph NE7.9 kmh NE 11.0 mph17.7 kmh 28.97 in981.0 mb 0.00 in0.0 mm 0.00 in0.0 mm 0.00 in0.0 mm
04:09 AM 44.8°F7.1°C 44.0°F6.7°C 97% 5.2 mph NE8.4 kmh NE 11.0 mph17.7 kmh 28.97 in981.0 mb 0.00 in0.0 mm 0.00 in0.0 mm 0.00 in0.0 mm
04:08 AM 44.8°F7.1°C 44.0°F6.7°C 97% 6.0 mph NE9.7 kmh NE 11.0 mph17.7 kmh 28.97 in981.0 mb 0.00 in0.0 mm 0.00 in0.0 mm 0.00 in0.0 mm
04:07 AM 44.8°F7.1°C 44.0°F6.7°C 97% 6.1 mph NE9.8 kmh NE 11.0 mph17.7 kmh 28.97 in981.0 mb 0.00 in0.0 mm 0.00 in0.0 mm 0.00 in0.0 mm
04:06 AM 44.8°F7.1°C 44.0°F6.7°C 97% 5.5 mph NE8.9 kmh NE 11.0 mph17.7 kmh 28.97 in981.0 mb 0.00 in0.0 mm 0.00 in0.0 mm 0.00 in0.0 mm
04:04 AM 44.8°F7.1°C 44.0°F6.7°C 97% 7.0 mph NE11.3 kmh NE 11.0 mph17.7 kmh 28.97 in981.0 mb 0.00 in0.0 mm 0.00 in0.0 mm 0.00 in0.0 mm
04:03 AM 44.8°F7.1°C 44.0°F6.7°C 97% 6.9 mph NE11.1 kmh NE 12.0 mph19.3 kmh 28.97 in981.0 mb 0.00 in0.0 mm 0.00 in0.0 mm 0.00 in0.0 mm
04:02 AM 44.8°F7.1°C 44.0°F6.7°C 97% 6.7 mph NE10.8 kmh NE 12.0 mph19.3 kmh 28.97 in981.0 mb 0.00 in0.0 mm 0.00 in0.0 mm 0.00 in0.0 mm
04:01 AM 44.8°F7.1°C 44.0°F6.7°C 97% 6.7 mph NE10.8 kmh NE 12.0 mph19.3 kmh 28.97 in981.0 mb 0.00 in0.0 mm 0.00 in0.0 mm 0.00 in0.0 mm
04:00 AM 44.8°F7.1°C 44.0°F6.7°C 97% 6.4 mph NE10.3 kmh NE 12.0 mph19.3 kmh 28.97 in981.0 mb 0.00 in0.0 mm 0.00 in0.0 mm 0.00 in0.0 mm
03:59 AM 44.8°F7.1°C 44.0°F6.7°C 97% 5.9 mph NE9.5 kmh NE 12.0 mph19.3 kmh 28.97 in981.0 mb 0.00 in0.0 mm 0.00 in0.0 mm 0.00 in0.0 mm
03:58 AM 44.8°F7.1°C 44.0°F6.7°C 97% 6.0 mph NE9.7 kmh NE 12.0 mph19.3 kmh 28.97 in981.0 mb 0.00 in0.0 mm 0.00 in0.0 mm 0.00 in0.0 mm
03:57 AM 44.8°F7.1°C 43.7°F6.5°C 96% 6.4 mph NE10.3 kmh NE 12.0 mph19.3 kmh 28.97 in981.0 mb 0.00 in0.0 mm 0.00 in0.0 mm 0.00 in0.0 mm
03:56 AM 44.8°F7.1°C 43.7°F6.5°C 96% 6.7 mph NE10.8 kmh NE 12.0 mph19.3 kmh 28.97 in981.0 mb 0.00 in0.0 mm 0.00 in0.0 mm 0.00 in0.0 mm
03:55 AM 44.8°F7.1°C 43.7°F6.5°C 96% 6.4 mph NE10.3 kmh NE 12.0 mph19.3 kmh 28.97 in981.0 mb 0.00 in0.0 mm 0.00 in0.0 mm 0.00 in0.0 mm
03:54 AM 45.0°F7.2°C 43.9°F6.6°C 96% 5.7 mph NE9.2 kmh NE 12.0 mph19.3 kmh 28.97 in981.0 mb 0.00 in0.0 mm 0.00 in0.0 mm 0.00 in0.0 mm
03:53 AM 45.0°F7.2°C 43.9°F6.6°C 96% 4.7 mph ENE7.6 kmh ENE 9.7 mph15.6 kmh 28.97 in981.0 mb 0.00 in0.0 mm 0.00 in0.0 mm 0.00 in0.0 mm
03:52 AM 45.0°F7.2°C 43.9°F6.6°C 96% 4.7 mph ENE7.6 kmh ENE 9.7 mph15.6 kmh 28.97 in981.0 mb 0.00 in0.0 mm 0.00 in0.0 mm 0.00 in0.0 mm
03:51 AM 44.8°F7.1°C 43.7°F6.5°C 96% 4.8 mph ENE7.7 kmh ENE 9.7 mph15.6 kmh 29.00 in982.1 mb 0.00 in0.0 mm 0.00 in0.0 mm 0.00 in0.0 mm
03:50 AM 44.8°F7.1°C 43.7°F6.5°C 96% 4.6 mph NE7.4 kmh NE 7.8 mph12.6 kmh 29.00 in982.1 mb 0.00 in0.0 mm 0.00 in0.0 mm 0.00 in0.0 mm
03:49 AM 44.8°F7.1°C 43.7°F6.5°C 96% 4.8 mph NE7.7 kmh NE 7.8 mph12.6 kmh 29.00 in982.1 mb 0.00 in0.0 mm 0.00 in0.0 mm 0.00 in0.0 mm
03:48 AM 44.8°F7.1°C 43.7°F6.5°C 96% 4.5 mph NE7.2 kmh NE 7.8 mph12.6 kmh 29.00 in982.1 mb 0.00 in0.0 mm 0.00 in0.0 mm 0.00 in0.0 mm
03:47 AM 44.8°F7.1°C 43.7°F6.5°C 96% 3.9 mph NE6.3 kmh NE 7.8 mph12.6 kmh 29.00 in982.1 mb 0.00 in0.0 mm 0.00 in0.0 mm 0.00 in0.0 mm
03:46 AM 44.8°F7.1°C 43.7°F6.5°C 96% 3.7 mph NE6.0 kmh NE 7.8 mph12.6 kmh 29.00 in982.1 mb 0.00 in0.0 mm 0.00 in0.0 mm 0.00 in0.0 mm
03:45 AM 44.8°F7.1°C 43.7°F6.5°C 96% 3.5 mph NE5.6 kmh NE 9.7 mph15.6 kmh 29.00 in982.1 mb 0.00 in0.0 mm 0.00 in0.0 mm 0.00 in0.0 mm
03:44 AM 44.8°F7.1°C 43.7°F6.5°C 96% 3.4 mph ENE5.5 kmh ENE 9.7 mph15.6 kmh 29.00 in982.1 mb 0.00 in0.0 mm 0.00 in0.0 mm 0.00 in0.0 mm
03:43 AM 44.8°F7.1°C 43.7°F6.5°C 96% 3.6 mph ENE5.8 kmh ENE 9.7 mph15.6 kmh 29.00 in982.1 mb 0.00 in0.0 mm 0.00 in0.0 mm 0.00 in0.0 mm
03:42 AM 44.8°F7.1°C 43.7°F6.5°C 96% 4.2 mph ENE6.8 kmh ENE 9.7 mph15.6 kmh 29.00 in982.1 mb 0.00 in0.0 mm 0.00 in0.0 mm 0.00 in0.0 mm
03:41 AM 44.8°F7.1°C 43.7°F6.5°C 96% 4.0 mph ENE6.4 kmh ENE 9.7 mph15.6 kmh 29.00 in982.1 mb 0.00 in0.0 mm 0.00 in0.0 mm 0.00 in0.0 mm
03:40 AM 44.8°F7.1°C 43.7°F6.5°C 96% 4.3 mph E6.9 kmh E 9.7 mph15.6 kmh 29.00 in982.1 mb 0.00 in0.0 mm 0.00 in0.0 mm 0.00 in0.0 mm
03:39 AM 44.8°F7.1°C 43.7°F6.5°C 96% 4.7 mph E7.6 kmh E 9.7 mph15.6 kmh 29.00 in982.1 mb 0.00 in0.0 mm 0.00 in0.0 mm 0.00 in0.0 mm
03:38 AM 44.8°F7.1°C 43.7°F6.5°C 96% 4.8 mph E7.7 kmh E 9.7 mph15.6 kmh 29.00 in982.1 mb 0.00 in0.0 mm 0.00 in0.0 mm 0.00 in0.0 mm
03:37 AM 44.8°F7.1°C 43.7°F6.5°C 96% 4.4 mph ENE7.1 kmh ENE 9.7 mph15.6 kmh 29.00 in982.1 mb 0.00 in0.0 mm 0.00 in0.0 mm 0.00 in0.0 mm
03:36 AM 44.8°F7.1°C 43.7°F6.5°C 96% 3.8 mph E6.1 kmh E 9.7 mph15.6 kmh 28.97 in981.0 mb 0.00 in0.0 mm 0.00 in0.0 mm 0.00 in0.0 mm
03:35 AM 44.8°F7.1°C 43.7°F6.5°C 96% 3.2 mph E5.1 kmh E 9.1 mph14.6 kmh 28.97 in981.0 mb 0.00 in0.0 mm 0.00 in0.0 mm 0.00 in0.0 mm
03:34 AM 44.8°F7.1°C 43.7°F6.5°C 96% 3.7 mph E6.0 kmh E 9.1 mph14.6 kmh 28.97 in981.0 mb 0.00 in0.0 mm 0.00 in0.0 mm 0.00 in0.0 mm
03:33 AM 44.8°F7.1°C 43.7°F6.5°C 96% 4.1 mph ENE6.6 kmh ENE 9.1 mph14.6 kmh 28.97 in981.0 mb 0.00 in0.0 mm 0.00 in0.0 mm 0.00 in0.0 mm
03:32 AM 44.8°F7.1°C 43.7°F6.5°C 96% 4.3 mph E6.9 kmh E 9.1 mph14.6 kmh 28.97 in981.0 mb 0.00 in0.0 mm 0.00 in0.0 mm 0.00 in0.0 mm
03:31 AM 44.8°F7.1°C 43.7°F6.5°C 96% 4.5 mph E7.2 kmh E 9.1 mph14.6 kmh 28.97 in981.0 mb 0.00 in0.0 mm 0.00 in0.0 mm 0.00 in0.0 mm
03:30 AM 44.8°F7.1°C 43.7°F6.5°C 96% 5.3 mph E8.5 kmh E 9.1 mph14.6 kmh 28.97 in981.0 mb 0.00 in0.0 mm 0.00 in0.0 mm 0.00 in0.0 mm
03:29 AM 44.8°F7.1°C 43.7°F6.5°C 96% 6.2 mph E10.0 kmh E 9.1 mph14.6 kmh 28.97 in981.0 mb 0.00 in0.0 mm 0.00 in0.0 mm 0.00 in0.0 mm
03:28 AM 44.8°F7.1°C 43.7°F6.5°C 96% 6.2 mph E10.0 kmh E 9.1 mph14.6 kmh 28.97 in981.0 mb 0.00 in0.0 mm 0.00 in0.0 mm 0.00 in0.0 mm
03:27 AM 44.8°F7.1°C 43.7°F6.5°C 96% 5.1 mph E8.2 kmh E 9.1 mph14.6 kmh 28.97 in981.0 mb 0.00 in0.0 mm 0.00 in0.0 mm 0.00 in0.0 mm
03:26 AM 44.8°F7.1°C 43.7°F6.5°C 96% 4.4 mph E7.1 kmh E 9.1 mph14.6 kmh 28.97 in981.0 mb 0.00 in0.0 mm 0.00 in0.0 mm 0.00 in0.0 mm
03:25 AM 44.8°F7.1°C 43.7°F6.5°C 96% 4.5 mph E7.2 kmh E 9.1 mph14.6 kmh 28.97 in981.0 mb 0.00 in0.0 mm 0.00 in0.0 mm 0.00 in0.0 mm
03:24 AM 44.8°F7.1°C 43.7°F6.5°C 96% 4.9 mph E7.9 kmh E 9.1 mph14.6 kmh 28.97 in981.0 mb 0.00 in0.0 mm 0.00 in0.0 mm 0.00 in0.0 mm
03:22 AM 44.8°F7.1°C 43.7°F6.5°C 96% 5.2 mph E8.4 kmh E 9.1 mph14.6 kmh 28.97 in981.0 mb 0.00 in0.0 mm 0.00 in0.0 mm 0.00 in0.0 mm
03:21 AM 44.8°F7.1°C 43.7°F6.5°C 96% 5.1 mph E8.2 kmh E 9.1 mph14.6 kmh 29.00 in982.1 mb 0.00 in0.0 mm 0.00 in0.0 mm 0.00 in0.0 mm
03:20 AM 45.0°F7.2°C 43.9°F6.6°C 96% 4.9 mph ENE7.9 kmh ENE 11.0 mph17.7 kmh 29.00 in982.1 mb 0.00 in0.0 mm 0.00 in0.0 mm 0.00 in0.0 mm
03:19 AM 44.8°F7.1°C 43.7°F6.5°C 96% 4.7 mph E7.6 kmh E 11.0 mph17.7 kmh 29.00 in982.1 mb 0.00 in0.0 mm 0.00 in0.0 mm 0.00 in0.0 mm
03:18 AM 44.8°F7.1°C 43.7°F6.5°C 96% 5.3 mph E8.5 kmh E 11.7 mph18.8 kmh 29.00 in982.1 mb 0.00 in0.0 mm 0.00 in0.0 mm 0.00 in0.0 mm
03:17 AM 44.8°F7.1°C 43.7°F6.5°C 96% 6.3 mph E10.1 kmh E 11.7 mph18.8 kmh 29.00 in982.1 mb 0.00 in0.0 mm 0.00 in0.0 mm 0.00 in0.0 mm
03:16 AM 44.8°F7.1°C 43.7°F6.5°C 96% 5.6 mph ENE9.0 kmh ENE 11.7 mph18.8 kmh 29.00 in982.1 mb 0.00 in0.0 mm 0.00 in0.0 mm 0.00 in0.0 mm
03:15 AM 44.8°F7.1°C 43.7°F6.5°C 96% 4.4 mph ENE7.1 kmh ENE 11.7 mph18.8 kmh 29.00 in982.1 mb 0.00 in0.0 mm 0.00 in0.0 mm 0.00 in0.0 mm
03:14 AM 45.0°F7.2°C 43.9°F6.6°C 96% 4.9 mph E7.9 kmh E 11.7 mph18.8 kmh 29.00 in982.1 mb 0.00 in0.0 mm 0.00 in0.0 mm 0.00 in0.0 mm
03:13 AM 44.8°F7.1°C 43.7°F6.5°C 96% 6.1 mph E9.8 kmh E 11.7 mph18.8 kmh 29.00 in982.1 mb 0.00 in0.0 mm 0.00 in0.0 mm 0.00 in0.0 mm
03:12 AM 44.8°F7.1°C 43.7°F6.5°C 96% 6.8 mph E10.9 kmh E 11.7 mph18.8 kmh 29.00 in982.1 mb 0.00 in0.0 mm 0.00 in0.0 mm 0.00 in0.0 mm
03:11 AM 44.8°F7.1°C 43.7°F6.5°C 96% 8.1 mph E13.0 kmh E 11.7 mph18.8 kmh 29.00 in982.1 mb 0.00 in0.0 mm 0.00 in0.0 mm 0.00 in0.0 mm
03:10 AM 44.8°F7.1°C 43.7°F6.5°C 96% 8.3 mph E13.4 kmh E 11.7 mph18.8 kmh 29.00 in982.1 mb 0.00 in0.0 mm 0.00 in0.0 mm 0.00 in0.0 mm
03:09 AM 44.8°F7.1°C 44.1°F6.7°C 97% 7.3 mph E11.7 kmh E 11.7 mph18.8 kmh 29.00 in982.1 mb 0.00 in0.0 mm 0.00 in0.0 mm 0.00 in0.0 mm
03:08 AM 44.8°F7.1°C 44.1°F6.7°C 97% 6.5 mph E10.5 kmh E 11.7 mph18.8 kmh 29.00 in982.1 mb 0.00 in0.0 mm 0.00 in0.0 mm 0.00 in0.0 mm
03:07 AM 44.8°F7.1°C 44.1°F6.7°C 97% 6.2 mph E10.0 kmh E 9.1 mph14.6 kmh 29.00 in982.1 mb 0.00 in0.0 mm 0.00 in0.0 mm 0.00 in0.0 mm
03:06 AM 44.8°F7.1°C 44.1°F6.7°C 97% 4.9 mph ENE7.9 kmh ENE 8.4 mph13.5 kmh 29.00 in982.1 mb 0.00 in0.0 mm 0.00 in0.0 mm 0.00 in0.0 mm
03:05 AM 44.8°F7.1°C 44.1°F6.7°C 97% 4.6 mph ENE7.4 kmh ENE 8.4 mph13.5 kmh 29.00 in982.1 mb 0.00 in0.0 mm 0.00 in0.0 mm 0.00 in0.0 mm
03:04 AM 44.8°F7.1°C 44.1°F6.7°C 97% 5.3 mph ENE8.5 kmh ENE 8.4 mph13.5 kmh 29.00 in982.1 mb 0.00 in0.0 mm 0.00 in0.0 mm 0.00 in0.0 mm
03:03 AM 44.8°F7.1°C 44.1°F6.7°C 97% 5.7 mph ENE9.2 kmh ENE 8.4 mph13.5 kmh 29.00 in982.1 mb 0.00 in0.0 mm 0.00 in0.0 mm 0.00 in0.0 mm
03:01 AM 44.8°F7.1°C 44.1°F6.7°C 97% 4.1 mph ENE6.6 kmh ENE 8.4 mph13.5 kmh 29.00 in982.1 mb 0.00 in0.0 mm 0.00 in0.0 mm 0.00 in0.0 mm
03:00 AM 44.8°F7.1°C 44.1°F6.7°C 97% 3.4 mph NE5.5 kmh NE 8.4 mph13.5 kmh 29.00 in982.1 mb 0.00 in0.0 mm 0.00 in0.0 mm 0.00 in0.0 mm
02:59 AM 44.8°F7.1°C 44.1°F6.7°C 97% 3.0 mph NE4.8 kmh NE 8.4 mph13.5 kmh 29.00 in982.1 mb 0.00 in0.0 mm 0.00 in0.0 mm 0.00 in0.0 mm
02:58 AM 45.0°F7.2°C 44.3°F6.8°C 97% 4.9 mph NNE7.9 kmh NNE 8.4 mph13.5 kmh 29.00 in982.1 mb 0.00 in0.0 mm 0.00 in0.0 mm 0.00 in0.0 mm
02:57 AM 44.8°F7.1°C 44.1°F6.7°C 97% 4.5 mph NE7.2 kmh NE 8.4 mph13.5 kmh 29.00 in982.1 mb 0.00 in0.0 mm 0.00 in0.0 mm 0.00 in0.0 mm
02:56 AM 44.8°F7.1°C 44.1°F6.7°C 97% 4.2 mph ENE6.8 kmh ENE 8.4 mph13.5 kmh 29.00 in982.1 mb 0.00 in0.0 mm 0.00 in0.0 mm 0.00 in0.0 mm
02:55 AM 44.8°F7.1°C 44.1°F6.7°C 97% 4.2 mph E6.8 kmh E 8.4 mph13.5 kmh 29.00 in982.1 mb 0.00 in0.0 mm 0.00 in0.0 mm 0.00 in0.0 mm
02:54 AM 44.8°F7.1°C 44.1°F6.7°C 97% 3.8 mph E6.1 kmh E 9.1 mph14.6 kmh 29.00 in982.1 mb 0.00 in0.0 mm 0.00 in0.0 mm 0.00 in0.0 mm
02:53 AM 44.8°F7.1°C 44.1°F6.7°C 97% 3.0 mph E4.8 kmh E 11.0 mph17.7 kmh 29.00 in982.1 mb 0.00 in0.0 mm 0.00 in0.0 mm 0.00 in0.0 mm
02:52 AM 44.8°F7.1°C 44.1°F6.7°C 97% 3.7 mph ENE6.0 kmh ENE 11.0 mph17.7 kmh 29.00 in982.1 mb 0.00 in0.0 mm 0.00 in0.0 mm 0.00 in0.0 mm
02:51 AM 44.8°F7.1°C 44.1°F6.7°C 97% 3.7 mph ENE6.0 kmh ENE 11.0 mph17.7 kmh 28.97 in981.0 mb 0.00 in0.0 mm 0.00 in0.0 mm 0.00 in0.0 mm
02:50 AM 44.8°F7.1°C 44.1°F6.7°C 97% 3.7 mph ENE6.0 kmh ENE 11.0 mph17.7 kmh 28.97 in981.0 mb 0.00 in0.0 mm 0.00 in0.0 mm 0.00 in0.0 mm
02:49 AM 44.8°F7.1°C 44.1°F6.7°C 97% 5.5 mph NE8.9 kmh NE 11.0 mph17.7 kmh 28.97 in981.0 mb 0.00 in0.0 mm 0.00 in0.0 mm 0.00 in0.0 mm
02:48 AM 44.8°F7.1°C 44.1°F6.7°C 97% 5.5 mph NE8.9 kmh NE 11.0 mph17.7 kmh 28.97 in981.0 mb 0.00 in0.0 mm 0.00 in0.0 mm 0.00 in0.0 mm
02:47 AM 44.8°F7.1°C 44.1°F6.7°C 97% 5.8 mph NE9.3 kmh NE 13.9 mph22.4 kmh 28.97 in981.0 mb 0.00 in0.0 mm 0.00 in0.0 mm 0.00 in0.0 mm
02:46 AM 44.8°F7.1°C 44.1°F6.7°C 97% 6.2 mph NE10.0 kmh NE 13.9 mph22.4 kmh 28.97 in981.0 mb 0.00 in0.0 mm 0.00 in0.0 mm 0.00 in0.0 mm
02:45 AM 44.8°F7.1°C 44.1°F6.7°C 97% 6.1 mph NE9.8 kmh NE 15.2 mph24.5 kmh 28.97 in981.0 mb 0.00 in0.0 mm 0.00 in0.0 mm 0.00 in0.0 mm
02:44 AM 44.8°F7.1°C 44.1°F6.7°C 97% 5.8 mph NNE9.3 kmh NNE 15.2 mph24.5 kmh 28.97 in981.0 mb 0.00 in0.0 mm 0.00 in0.0 mm 0.00 in0.0 mm
02:43 AM 45.0°F7.2°C 44.3°F6.8°C 97% 5.6 mph NNE9.0 kmh NNE 15.2 mph24.5 kmh 28.97 in981.0 mb 0.00 in0.0 mm 0.00 in0.0 mm 0.00 in0.0 mm
02:42 AM 44.8°F7.1°C 44.1°F6.7°C 97% 6.0 mph NE9.7 kmh NE 15.2 mph24.5 kmh 28.97 in981.0 mb 0.00 in0.0 mm 0.00 in0.0 mm 0.00 in0.0 mm
02:41 AM 44.8°F7.1°C 44.1°F6.7°C 97% 6.9 mph NE11.1 kmh NE 15.2 mph24.5 kmh 28.97 in981.0 mb 0.00 in0.0 mm 0.00 in0.0 mm 0.00 in0.0 mm
02:40 AM 44.8°F7.1°C 44.1°F6.7°C 97% 8.3 mph NE13.4 kmh NE 15.2 mph24.5 kmh 28.97 in981.0 mb 0.00 in0.0 mm 0.00 in0.0 mm 0.00 in0.0 mm
02:39 AM 45.0°F7.2°C 44.3°F6.8°C 97% 8.2 mph NE13.2 kmh NE 15.2 mph24.5 kmh 28.97 in981.0 mb 0.00 in0.0 mm 0.00 in0.0 mm 0.00 in0.0 mm
02:38 AM 45.0°F7.2°C 44.3°F6.8°C 97% 9.1 mph NE14.6 kmh NE 15.2 mph24.5 kmh 28.97 in981.0 mb 0.00 in0.0 mm 0.00 in0.0 mm 0.00 in0.0 mm
02:37 AM 45.0°F7.2°C 44.3°F6.8°C 97% 9.4 mph NE15.1 kmh NE 15.2 mph24.5 kmh 28.97 in981.0 mb 0.00 in0.0 mm 0.00 in0.0 mm 0.00 in0.0 mm
02:36 AM 45.0°F7.2°C 44.3°F6.8°C 97% 7.7 mph NE12.4 kmh NE 15.2 mph24.5 kmh 29.00 in982.1 mb 0.00 in0.0 mm 0.00 in0.0 mm 0.00 in0.0 mm
02:35 AM 45.0°F7.2°C 44.3°F6.8°C 97% 7.4 mph NE11.9 kmh NE 15.2 mph24.5 kmh 29.00 in982.1 mb 0.00 in0.0 mm 0.00 in0.0 mm 0.00 in0.0 mm
02:34 AM 45.1°F7.3°C 44.4°F6.9°C 97% 8.1 mph NE13.0 kmh NE 13.9 mph22.4 kmh 29.00 in982.1 mb 0.00 in0.0 mm 0.00 in0.0 mm 0.00 in0.0 mm
02:33 AM 45.1°F7.3°C 44.4°F6.9°C 97% 8.5 mph NE13.7 kmh NE 13.9 mph22.4 kmh 29.00 in982.1 mb 0.00 in0.0 mm 0.00 in0.0 mm 0.00 in0.0 mm
02:32 AM 45.1°F7.3°C 44.4°F6.9°C 97% 7.0 mph NE11.3 kmh NE 13.9 mph22.4 kmh 29.00 in982.1 mb 0.00 in0.0 mm 0.00 in0.0 mm 0.00 in0.0 mm
02:31 AM 45.1°F7.3°C 44.1°F6.7°C 96% 5.7 mph NE9.2 kmh NE 11.0 mph17.7 kmh 29.00 in982.1 mb 0.00 in0.0 mm 0.00 in0.0 mm 0.00 in0.0 mm
02:30 AM 45.1°F7.3°C 44.1°F6.7°C 96% 5.3 mph NE8.5 kmh NE 11.0 mph17.7 kmh 29.00 in982.1 mb 0.00 in0.0 mm 0.00 in0.0 mm 0.00 in0.0 mm
02:29 AM 45.0°F7.2°C 44.0°F6.7°C 96% 6.8 mph ENE10.9 kmh ENE 9.1 mph14.6 kmh 29.00 in982.1 mb 0.00 in0.0 mm 0.00 in0.0 mm 0.00 in0.0 mm
02:28 AM 45.1°F7.3°C 44.1°F6.7°C 96% 7.4 mph NE11.9 kmh NE 9.1 mph14.6 kmh 29.00 in982.1 mb 0.00 in0.0 mm 0.00 in0.0 mm 0.00 in0.0 mm
02:27 AM 45.1°F7.3°C 44.1°F6.7°C 96% 6.9 mph NE11.1 kmh NE 9.1 mph14.6 kmh 29.00 in982.1 mb 0.00 in0.0 mm 0.00 in0.0 mm 0.00 in0.0 mm
02:26 AM 45.1°F7.3°C 44.1°F6.7°C 96% 6.1 mph NE9.8 kmh NE 9.1 mph14.6 kmh 29.00 in982.1 mb 0.00 in0.0 mm 0.00 in0.0 mm 0.00 in0.0 mm
02:25 AM 45.0°F7.2°C 44.0°F6.7°C 96% 5.6 mph ENE9.0 kmh ENE 9.1 mph14.6 kmh 29.00 in982.1 mb 0.00 in0.0 mm 0.00 in0.0 mm 0.00 in0.0 mm
02:24 AM 45.1°F7.3°C 44.1°F6.7°C 96% 5.3 mph ENE8.5 kmh ENE 9.1 mph14.6 kmh 29.00 in982.1 mb 0.00 in0.0 mm 0.00 in0.0 mm 0.00 in0.0 mm
02:23 AM 45.0°F7.2°C 43.6°F6.4°C 95% 5.1 mph NE8.2 kmh NE 9.1 mph14.6 kmh 29.00 in982.1 mb 0.00 in0.0 mm 0.00 in0.0 mm 0.00 in0.0 mm
02:22 AM 45.1°F7.3°C 43.7°F6.5°C 95% 4.9 mph NE7.9 kmh NE 9.1 mph14.6 kmh 29.00 in982.1 mb 0.00 in0.0 mm 0.00 in0.0 mm 0.00 in0.0 mm
02:21 AM 45.0°F7.2°C 43.6°F6.4°C 95% 5.1 mph NE8.2 kmh NE 9.9 mph15.9 kmh 29.00 in982.1 mb 0.00 in0.0 mm 0.00 in0.0 mm 0.00 in0.0 mm
02:20 AM 45.1°F7.3°C 43.7°F6.5°C 95% 6.4 mph NNE10.3 kmh NNE 12.0 mph19.3 kmh 29.00 in982.1 mb 0.00 in0.0 mm 0.00 in0.0 mm 0.00 in0.0 mm
02:18 AM 45.1°F7.3°C 43.8°F6.6°C 95% 5.7 mph NNE9.2 kmh NNE 12.0 mph19.3 kmh 29.00 in982.1 mb 0.00 in0.0 mm 0.00 in0.0 mm 0.00 in0.0 mm
02:17 AM 45.0°F7.2°C 43.3°F6.3°C 94% 5.8 mph NNE9.3 kmh NNE 12.0 mph19.3 kmh 29.00 in982.1 mb 0.00 in0.0 mm 0.00 in0.0 mm 0.00 in0.0 mm
02:16 AM 45.1°F7.3°C 43.4°F6.3°C 94% 5.8 mph NNE9.3 kmh NNE 12.0 mph19.3 kmh 29.00 in982.1 mb 0.00 in0.0 mm 0.00 in0.0 mm 0.00 in0.0 mm
02:15 AM 45.1°F7.3°C 43.4°F6.3°C 94% 5.8 mph NE9.3 kmh NE 12.0 mph19.3 kmh 29.00 in982.1 mb 0.00 in0.0 mm 0.00 in0.0 mm 0.00 in0.0 mm
02:14 AM 45.1°F7.3°C 43.4°F6.3°C 94% 5.9 mph NE9.5 kmh NE 12.0 mph19.3 kmh 29.00 in982.1 mb 0.00 in0.0 mm 0.00 in0.0 mm 0.00 in0.0 mm
02:13 AM 45.0°F7.2°C 43.3°F6.3°C 94% 7.6 mph NE12.2 kmh NE 12.0 mph19.3 kmh 29.00 in982.1 mb 0.00 in0.0 mm 0.00 in0.0 mm 0.00 in0.0 mm
02:12 AM 45.0°F7.2°C 43.3°F6.3°C 94% 7.9 mph NE12.7 kmh NE 14.6 mph23.5 kmh 29.00 in982.1 mb 0.00 in0.0 mm 0.00 in0.0 mm 0.00 in0.0 mm
02:11 AM 45.0°F7.2°C 43.3°F6.3°C 94% 6.1 mph NE9.8 kmh NE 14.6 mph23.5 kmh 29.00 in982.1 mb 0.00 in0.0 mm 0.00 in0.0 mm 0.00 in0.0 mm
02:10 AM 45.0°F7.2°C 43.3°F6.3°C 94% 5.8 mph ENE9.3 kmh ENE 14.6 mph23.5 kmh 29.00 in982.1 mb 0.00 in0.0 mm 0.00 in0.0 mm 0.00 in0.0 mm
02:09 AM 44.8°F7.1°C 43.1°F6.2°C 94% 6.4 mph ENE10.3 kmh ENE 14.6 mph23.5 kmh 29.00 in982.1 mb 0.00 in0.0 mm 0.00 in0.0 mm 0.00 in0.0 mm
02:08 AM 44.8°F7.1°C 43.1°F6.2°C 94% 6.1 mph ENE9.8 kmh ENE 14.6 mph23.5 kmh 29.00 in982.1 mb 0.00 in0.0 mm 0.00 in0.0 mm 0.00 in0.0 mm
02:07 AM 44.8°F7.1°C 43.1°F6.2°C 94% 6.4 mph ENE10.3 kmh ENE 14.6 mph23.5 kmh 29.03 in983.1 mb 0.00 in0.0 mm 0.00 in0.0 mm 0.00 in0.0 mm
02:06 AM 45.0°F7.2°C 43.3°F6.3°C 94% 6.9 mph ENE11.1 kmh ENE 14.6 mph23.5 kmh 29.03 in983.1 mb 0.00 in0.0 mm 0.00 in0.0 mm 0.00 in0.0 mm
02:05 AM 45.0°F7.2°C 43.3°F6.3°C 94% 8.2 mph ENE13.2 kmh ENE 14.6 mph23.5 kmh 29.03 in983.1 mb 0.00 in0.0 mm 0.00 in0.0 mm 0.00 in0.0 mm
02:04 AM 44.8°F7.1°C 43.1°F6.2°C 94% 9.2 mph E14.8 kmh E 14.6 mph23.5 kmh 29.03 in983.1 mb 0.00 in0.0 mm 0.00 in0.0 mm 0.00 in0.0 mm
02:03 AM 44.8°F7.1°C 43.1°F6.2°C 94% 9.0 mph E14.5 kmh E 14.6 mph23.5 kmh 29.03 in983.1 mb 0.00 in0.0 mm 0.00 in0.0 mm 0.00 in0.0 mm
02:02 AM 44.8°F7.1°C 43.1°F6.2°C 94% 9.0 mph E14.5 kmh E 12.6 mph20.3 kmh 29.03 in983.1 mb 0.00 in0.0 mm 0.00 in0.0 mm 0.00 in0.0 mm
02:01 AM 45.0°F7.2°C 43.3°F6.3°C 94% 9.8 mph ENE15.8 kmh ENE 12.6 mph20.3 kmh 29.03 in983.1 mb 0.00 in0.0 mm 0.00 in0.0 mm 0.00 in0.0 mm
02:00 AM 44.8°F7.1°C 43.1°F6.2°C 94% 9.3 mph ENE15.0 kmh ENE 12.6 mph20.3 kmh 29.03 in983.1 mb 0.00 in0.0 mm 0.00 in0.0 mm 0.00 in0.0 mm
01:59 AM 45.0°F7.2°C 43.3°F6.3°C 94% 8.2 mph NE13.2 kmh NE 12.6 mph20.3 kmh 29.03 in983.1 mb 0.00 in0.0 mm 0.00 in0.0 mm 0.00 in0.0 mm
01:58 AM 44.8°F7.1°C 43.1°F6.2°C 94% 8.0 mph ENE12.9 kmh ENE 11.7 mph18.8 kmh 29.03 in983.1 mb 0.00 in0.0 mm 0.00 in0.0 mm 0.00 in0.0 mm
01:57 AM 45.0°F7.2°C 43.3°F6.3°C 94% 8.4 mph ENE13.5 kmh ENE 11.7 mph18.8 kmh 29.03 in983.1 mb 0.00 in0.0 mm 0.00 in0.0 mm 0.00 in0.0 mm
01:56 AM 45.0°F7.2°C 43.3°F6.3°C 94% 7.1 mph NE11.4 kmh NE 10.4 mph16.7 kmh 29.03 in983.1 mb 0.00 in0.0 mm 0.00 in0.0 mm 0.00 in0.0 mm
01:55 AM 45.0°F7.2°C 43.0°F6.1°C 93% 6.0 mph NE9.7 kmh NE 10.4 mph16.7 kmh 29.03 in983.1 mb 0.00 in0.0 mm 0.00 in0.0 mm 0.00 in0.0 mm
01:54 AM 44.8°F7.1°C 42.8°F6.0°C 93% 5.7 mph NE9.2 kmh NE 9.7 mph15.6 kmh 29.03 in983.1 mb 0.00 in0.0 mm 0.00 in0.0 mm 0.00 in0.0 mm
01:53 AM 45.0°F7.2°C 43.0°F6.1°C 93% 6.5 mph NE10.5 kmh NE 9.1 mph14.6 kmh 29.03 in983.1 mb 0.00 in0.0 mm 0.00 in0.0 mm 0.00 in0.0 mm
01:52 AM 45.0°F7.2°C 43.0°F6.1°C 93% 6.8 mph NE10.9 kmh NE 9.1 mph14.6 kmh 29.03 in983.1 mb 0.00 in0.0 mm 0.00 in0.0 mm 0.00 in0.0 mm
01:51 AM 44.8°F7.1°C 42.8°F6.0°C 93% 6.6 mph NE10.6 kmh NE 9.1 mph14.6 kmh 29.03 in983.1 mb 0.00 in0.0 mm 0.00 in0.0 mm 0.00 in0.0 mm
01:50 AM 44.8°F7.1°C 42.8°F6.0°C 93% 5.7 mph NE9.2 kmh NE 9.1 mph14.6 kmh 29.03 in983.1 mb 0.00 in0.0 mm 0.00 in0.0 mm 0.00 in0.0 mm
01:49 AM 45.0°F7.2°C 43.0°F6.1°C 93% 5.8 mph NE9.3 kmh NE 9.1 mph14.6 kmh 29.03 in983.1 mb 0.00 in0.0 mm 0.00 in0.0 mm 0.00 in0.0 mm
01:48 AM 44.8°F7.1°C 42.8°F6.0°C 93% 6.0 mph NE9.7 kmh NE 9.1 mph14.6 kmh 29.03 in983.1 mb 0.00 in0.0 mm 0.00 in0.0 mm 0.00 in0.0 mm
01:47 AM 44.8°F7.1°C 42.5°F5.8°C 92% 6.0 mph NE9.7 kmh NE 9.1 mph14.6 kmh 29.03 in983.1 mb 0.00 in0.0 mm 0.00 in0.0 mm 0.00 in0.0 mm
01:46 AM 44.8°F7.1°C 42.5°F5.8°C 92% 5.4 mph NE8.7 kmh NE 9.1 mph14.6 kmh 29.03 in983.1 mb 0.00 in0.0 mm 0.00 in0.0 mm 0.00 in0.0 mm
01:45 AM 44.8°F7.1°C 42.5°F5.8°C 92% 4.8 mph NE7.7 kmh NE 9.1 mph14.6 kmh 29.03 in983.1 mb 0.00 in0.0 mm 0.00 in0.0 mm 0.00 in0.0 mm
01:44 AM 44.8°F7.1°C 42.5°F5.8°C 92% 4.3 mph NE6.9 kmh NE 9.1 mph14.6 kmh 29.03 in983.1 mb 0.00 in0.0 mm 0.00 in0.0 mm 0.00 in0.0 mm
01:43 AM 44.8°F7.1°C 42.5°F5.8°C 92% 3.8 mph NE6.1 kmh NE 9.1 mph14.6 kmh 29.03 in983.1 mb 0.00 in0.0 mm 0.00 in0.0 mm 0.00 in0.0 mm
01:42 AM 44.8°F7.1°C 42.5°F5.8°C 92% 3.3 mph NE5.3 kmh NE 9.1 mph14.6 kmh 29.03 in983.1 mb 0.00 in0.0 mm 0.00 in0.0 mm 0.00 in0.0 mm
01:41 AM 44.6°F7.0°C 42.3°F5.7°C 92% 4.1 mph NE6.6 kmh NE 9.1 mph14.6 kmh 29.03 in983.1 mb 0.00 in0.0 mm 0.00 in0.0 mm 0.00 in0.0 mm
01:40 AM 44.6°F7.0°C 42.3°F5.7°C 92% 4.2 mph ENE6.8 kmh ENE 9.1 mph14.6 kmh 29.03 in983.1 mb 0.00 in0.0 mm 0.00 in0.0 mm 0.00 in0.0 mm
01:39 AM 44.6°F7.0°C 42.3°F5.7°C 92% 3.9 mph ENE6.3 kmh ENE 9.1 mph14.6 kmh 29.03 in983.1 mb 0.00 in0.0 mm 0.00 in0.0 mm 0.00 in0.0 mm
01:38 AM 44.8°F7.1°C 42.5°F5.8°C 92% 4.1 mph ENE6.6 kmh ENE 9.1 mph14.6 kmh 29.03 in983.1 mb 0.00 in0.0 mm 0.00 in0.0 mm 0.00 in0.0 mm
01:37 AM 44.6°F7.0°C 42.3°F5.7°C 92% 3.9 mph NE6.3 kmh NE 7.1 mph11.4 kmh 29.03 in983.1 mb 0.00 in0.0 mm 0.00 in0.0 mm 0.00 in0.0 mm
01:36 AM 44.6°F7.0°C 42.3°F5.7°C 92% 3.7 mph NE6.0 kmh NE 7.1 mph11.4 kmh 29.03 in983.1 mb 0.00 in0.0 mm 0.00 in0.0 mm 0.00 in0.0 mm
01:35 AM 44.6°F7.0°C 42.3°F5.7°C 92% 3.7 mph NE6.0 kmh NE 7.1 mph11.4 kmh 29.03 in983.1 mb 0.00 in0.0 mm 0.00 in0.0 mm 0.00 in0.0 mm
01:34 AM 44.6°F7.0°C 42.3°F5.7°C 92% 4.1 mph NE6.6 kmh NE 7.1 mph11.4 kmh 29.03 in983.1 mb 0.00 in0.0 mm 0.00 in0.0 mm 0.00 in0.0 mm
01:33 AM 44.6°F7.0°C 42.6°F5.9°C 93% 4.1 mph NE6.6 kmh NE 8.4 mph13.5 kmh 29.03 in983.1 mb 0.00 in0.0 mm 0.00 in0.0 mm 0.00 in0.0 mm
01:32 AM 44.6°F7.0°C 42.6°F5.9°C 93% 3.9 mph NE6.3 kmh NE 8.4 mph13.5 kmh 29.03 in983.1 mb 0.00 in0.0 mm 0.00 in0.0 mm 0.00 in0.0 mm
01:31 AM 44.6°F7.0°C 42.6°F5.9°C 93% 4.1 mph ENE6.6 kmh ENE 8.4 mph13.5 kmh 29.03 in983.1 mb 0.00 in0.0 mm 0.00 in0.0 mm 0.00 in0.0 mm
01:30 AM 44.6°F7.0°C 42.6°F5.9°C 93% 4.1 mph ENE6.6 kmh ENE 8.4 mph13.5 kmh 29.03 in983.1 mb 0.00 in0.0 mm 0.00 in0.0 mm 0.00 in0.0 mm
01:29 AM 44.6°F7.0°C 42.6°F5.9°C 93% 3.9 mph ENE6.3 kmh ENE 8.4 mph13.5 kmh 29.03 in983.1 mb 0.00 in0.0 mm 0.00 in0.0 mm 0.00 in0.0 mm
01:28 AM 44.6°F7.0°C 42.6°F5.9°C 93% 3.3 mph NE5.3 kmh NE 8.4 mph13.5 kmh 29.03 in983.1 mb 0.00 in0.0 mm 0.00 in0.0 mm 0.00 in0.0 mm
01:27 AM 44.4°F6.9°C 42.4°F5.8°C 93% 3.4 mph NE5.5 kmh NE 8.4 mph13.5 kmh 29.03 in983.1 mb 0.00 in0.0 mm 0.00 in0.0 mm 0.00 in0.0 mm
01:26 AM 44.6°F7.0°C 42.6°F5.9°C 93% 3.8 mph NE6.1 kmh NE 8.4 mph13.5 kmh 29.03 in983.1 mb 0.00 in0.0 mm 0.00 in0.0 mm 0.00 in0.0 mm
01:25 AM 44.6°F7.0°C 42.6°F5.9°C 93% 4.1 mph NE6.6 kmh NE 8.4 mph13.5 kmh 29.03 in983.1 mb 0.00 in0.0 mm 0.00 in0.0 mm 0.00 in0.0 mm
01:24 AM 44.6°F7.0°C 42.6°F5.9°C 93% 4.0 mph NE6.4 kmh NE 9.1 mph14.6 kmh 29.03 in983.1 mb 0.00 in0.0 mm 0.00 in0.0 mm 0.00 in0.0 mm
01:23 AM 44.4°F6.9°C 42.8°F6.0°C 94% 3.7 mph NE6.0 kmh NE 9.1 mph14.6 kmh 29.03 in983.1 mb 0.00 in0.0 mm 0.00 in0.0 mm 0.00 in0.0 mm
01:22 AM 44.4°F6.9°C 42.8°F6.0°C 94% 3.8 mph ENE6.1 kmh ENE 9.1 mph14.6 kmh 29.03 in983.1 mb 0.00 in0.0 mm 0.00 in0.0 mm 0.00 in0.0 mm
01:21 AM 44.4°F6.9°C 42.8°F6.0°C 94% 4.0 mph NE6.4 kmh NE 9.1 mph14.6 kmh 29.03 in983.1 mb 0.00 in0.0 mm 0.00 in0.0 mm 0.00 in0.0 mm
01:20 AM 44.4°F6.9°C 42.8°F6.0°C 94% 3.7 mph NE6.0 kmh NE 9.1 mph14.6 kmh 29.03 in983.1 mb 0.00 in0.0 mm 0.00 in0.0 mm 0.00 in0.0 mm
01:19 AM 44.6°F7.0°C 42.6°F5.9°C 93% 3.4 mph NE5.5 kmh NE 9.1 mph14.6 kmh 29.03 in983.1 mb 0.00 in0.0 mm 0.00 in0.0 mm 0.00 in0.0 mm
01:18 AM 44.6°F7.0°C 42.6°F5.9°C 93% 4.3 mph NNE6.9 kmh NNE 9.1 mph14.6 kmh 29.03 in983.1 mb 0.00 in0.0 mm 0.00 in0.0 mm 0.00 in0.0 mm
01:17 AM 44.4°F6.9°C 42.4°F5.8°C 93% 4.8 mph NNE7.7 kmh NNE 9.1 mph14.6 kmh 29.03 in983.1 mb 0.00 in0.0 mm 0.00 in0.0 mm 0.00 in0.0 mm
01:16 AM 44.4°F6.9°C 42.4°F5.8°C 93% 4.4 mph NE7.1 kmh NE 9.1 mph14.6 kmh 29.03 in983.1 mb 0.00 in0.0 mm 0.00 in0.0 mm 0.00 in0.0 mm
01:15 AM 44.4°F6.9°C 42.8°F6.0°C 94% 3.8 mph NE6.1 kmh NE 9.1 mph14.6 kmh 29.03 in983.1 mb 0.00 in0.0 mm 0.00 in0.0 mm 0.00 in0.0 mm
01:14 AM 44.4°F6.9°C 42.8°F6.0°C 94% 3.3 mph NNE5.3 kmh NNE 8.4 mph13.5 kmh 29.03 in983.1 mb 0.00 in0.0 mm 0.00 in0.0 mm 0.00 in0.0 mm
01:13 AM 44.4°F6.9°C 42.4°F5.8°C 93% 3.0 mph NNE4.8 kmh NNE 8.4 mph13.5 kmh 29.03 in983.1 mb 0.00 in0.0 mm 0.00 in0.0 mm 0.00 in0.0 mm
01:12 AM 44.4°F6.9°C 42.4°F5.8°C 93% 4.1 mph NNE6.6 kmh NNE 8.4 mph13.5 kmh 29.03 in983.1 mb 0.00 in0.0 mm 0.00 in0.0 mm 0.00 in0.0 mm
01:11 AM 44.6°F7.0°C 42.6°F5.9°C 93% 4.6 mph NNE7.4 kmh NNE 8.4 mph13.5 kmh 29.03 in983.1 mb 0.00 in0.0 mm 0.00 in0.0 mm 0.00 in0.0 mm
01:10 AM 44.6°F7.0°C 42.3°F5.7°C 92% 4.6 mph NNE7.4 kmh NNE 8.4 mph13.5 kmh 29.03 in983.1 mb 0.00 in0.0 mm 0.00 in0.0 mm 0.00 in0.0 mm
01:09 AM 44.4°F6.9°C 42.4°F5.8°C 93% 5.1 mph NNE8.2 kmh NNE 8.4 mph13.5 kmh 29.03 in983.1 mb 0.00 in0.0 mm 0.00 in0.0 mm 0.00 in0.0 mm
01:08 AM 44.4°F6.9°C 42.4°F5.8°C 93% 5.2 mph NE8.4 kmh NE 8.4 mph13.5 kmh 29.03 in983.1 mb 0.00 in0.0 mm 0.00 in0.0 mm 0.00 in0.0 mm
01:07 AM 44.4°F6.9°C 42.1°F5.6°C 92% 4.8 mph NE7.7 kmh NE 9.1 mph14.6 kmh 29.03 in983.1 mb 0.00 in0.0 mm 0.00 in0.0 mm 0.00 in0.0 mm
01:06 AM 44.4°F6.9°C 42.1°F5.6°C 92% 4.9 mph NE7.9 kmh NE 9.1 mph14.6 kmh 29.03 in983.1 mb 0.00 in0.0 mm 0.00 in0.0 mm 0.00 in0.0 mm
01:05 AM 44.4°F6.9°C 42.1°F5.6°C 92% 5.3 mph NNE8.5 kmh NNE 9.1 mph14.6 kmh 29.03 in983.1 mb 0.00 in0.0 mm 0.00 in0.0 mm 0.00 in0.0 mm
01:04 AM 44.4°F6.9°C 42.1°F5.6°C 92% 5.6 mph NNE9.0 kmh NNE 9.1 mph14.6 kmh 29.03 in983.1 mb 0.00 in0.0 mm 0.00 in0.0 mm 0.00 in0.0 mm
01:03 AM 44.4°F6.9°C 42.1°F5.6°C 92% 5.7 mph NE9.2 kmh NE 9.1 mph14.6 kmh 29.03 in983.1 mb 0.00 in0.0 mm 0.00 in0.0 mm 0.00 in0.0 mm
01:02 AM 44.4°F6.9°C 42.1°F5.6°C 92% 5.4 mph NE8.7 kmh NE 9.1 mph14.6 kmh 29.03 in983.1 mb 0.00 in0.0 mm 0.00 in0.0 mm 0.00 in0.0 mm
01:01 AM 44.4°F6.9°C 42.1°F5.6°C 92% 5.6 mph NNE9.0 kmh NNE 9.1 mph14.6 kmh 29.03 in983.1 mb 0.00 in0.0 mm 0.00 in0.0 mm 0.00 in0.0 mm
01:00 AM 44.4°F6.9°C 42.1°F5.6°C 92% 5.7 mph NNE9.2 kmh NNE 9.1 mph14.6 kmh 29.03 in983.1 mb 0.00 in0.0 mm 0.00 in0.0 mm 0.00 in0.0 mm
12:59 AM 44.4°F6.9°C 41.8°F5.4°C 91% 4.7 mph NNE7.6 kmh NNE 9.1 mph14.6 kmh 29.03 in983.1 mb 0.00 in0.0 mm 0.00 in0.0 mm 0.00 in0.0 mm
12:58 AM 44.2°F6.8°C 41.6°F5.3°C 91% 4.3 mph NE6.9 kmh NE 9.1 mph14.6 kmh 29.03 in983.1 mb 0.00 in0.0 mm 0.00 in0.0 mm 0.00 in0.0 mm
12:57 AM 44.4°F6.9°C 41.8°F5.4°C 91% 5.5 mph NE8.9 kmh NE 9.1 mph14.6 kmh 29.03 in983.1 mb 0.00 in0.0 mm 0.00 in0.0 mm 0.00 in0.0 mm
12:56 AM 44.4°F6.9°C 41.8°F5.4°C 91% 5.8 mph NE9.3 kmh NE 9.1 mph14.6 kmh 29.03 in983.1 mb 0.00 in0.0 mm 0.00 in0.0 mm 0.00 in0.0 mm
12:55 AM 44.4°F6.9°C 41.8°F5.4°C 91% 5.7 mph NE9.2 kmh NE 9.1 mph14.6 kmh 29.03 in983.1 mb 0.00 in0.0 mm 0.00 in0.0 mm 0.00 in0.0 mm
12:54 AM 44.4°F6.9°C 41.8°F5.4°C 91% 5.3 mph NE8.5 kmh NE 9.1 mph14.6 kmh 29.03 in983.1 mb 0.00 in0.0 mm 0.00 in0.0 mm 0.00 in0.0 mm
12:53 AM 44.2°F6.8°C 41.6°F5.3°C 91% 5.0 mph NE8.0 kmh NE 9.1 mph14.6 kmh 29.03 in983.1 mb 0.00 in0.0 mm 0.00 in0.0 mm 0.00 in0.0 mm
12:52 AM 44.4°F6.9°C 41.8°F5.4°C 91% 4.9 mph NE7.9 kmh NE 9.1 mph14.6 kmh 29.03 in983.1 mb 0.00 in0.0 mm 0.00 in0.0 mm 0.00 in0.0 mm
12:51 AM 44.2°F6.8°C 41.6°F5.3°C 91% 5.1 mph NE8.2 kmh NE 9.1 mph14.6 kmh 29.03 in983.1 mb 0.00 in0.0 mm 0.00 in0.0 mm 0.00 in0.0 mm
12:50 AM 44.2°F6.8°C 41.6°F5.3°C 91% 5.5 mph NE8.9 kmh NE 9.1 mph14.6 kmh 29.03 in983.1 mb 0.00 in0.0 mm 0.00 in0.0 mm 0.00 in0.0 mm
12:49 AM 44.2°F6.8°C 41.3°F5.2°C 90% 5.5 mph NE8.9 kmh NE 9.1 mph14.6 kmh 29.03 in983.1 mb 0.00 in0.0 mm 0.00 in0.0 mm 0.00 in0.0 mm
12:48 AM 44.2°F6.8°C 41.3°F5.2°C 90% 5.0 mph NE8.0 kmh NE 9.1 mph14.6 kmh 29.03 in983.1 mb 0.00 in0.0 mm 0.00 in0.0 mm 0.00 in0.0 mm
12:47 AM 44.2°F6.8°C 41.3°F5.2°C 90% 4.2 mph NE6.8 kmh NE 7.1 mph11.4 kmh 29.03 in983.1 mb 0.00 in0.0 mm 0.00 in0.0 mm 0.00 in0.0 mm
12:46 AM 44.2°F6.8°C 41.3°F5.2°C 90% 3.5 mph NE5.6 kmh NE 7.1 mph11.4 kmh 29.03 in983.1 mb 0.00 in0.0 mm 0.00 in0.0 mm 0.00 in0.0 mm
12:45 AM 44.1°F6.7°C 41.2°F5.1°C 90% 3.4 mph NE5.5 kmh NE 7.8 mph12.6 kmh 29.03 in983.1 mb 0.00 in0.0 mm 0.00 in0.0 mm 0.00 in0.0 mm
12:44 AM 44.1°F6.7°C 41.2°F5.1°C 90% 4.0 mph NE6.4 kmh NE 7.8 mph12.6 kmh 29.03 in983.1 mb 0.00 in0.0 mm 0.00 in0.0 mm 0.00 in0.0 mm
12:43 AM 44.2°F6.8°C 41.3°F5.2°C 90% 4.1 mph NE6.6 kmh NE 7.8 mph12.6 kmh 29.03 in983.1 mb 0.00 in0.0 mm 0.00 in0.0 mm 0.00 in0.0 mm
12:42 AM 44.1°F6.7°C 41.2°F5.1°C 90% 4.1 mph NE6.6 kmh NE 7.8 mph12.6 kmh 29.03 in983.1 mb 0.00 in0.0 mm 0.00 in0.0 mm 0.00 in0.0 mm
12:41 AM 44.2°F6.8°C 41.3°F5.2°C 90% 4.3 mph NE6.9 kmh NE 7.8 mph12.6 kmh 29.03 in983.1 mb 0.00 in0.0 mm 0.00 in0.0 mm 0.00 in0.0 mm
12:40 AM 44.1°F6.7°C 41.2°F5.1°C 90% 4.4 mph NE7.1 kmh NE 7.8 mph12.6 kmh 29.03 in983.1 mb 0.00 in0.0 mm 0.00 in0.0 mm 0.00 in0.0 mm
12:39 AM 44.1°F6.7°C 41.2°F5.1°C 90% 4.1 mph NNE6.6 kmh NNE 7.8 mph12.6 kmh 29.03 in983.1 mb 0.00 in0.0 mm 0.00 in0.0 mm 0.00 in0.0 mm
12:38 AM 44.2°F6.8°C 41.3°F5.2°C 90% 4.4 mph NE7.1 kmh NE 7.8 mph12.6 kmh 29.03 in983.1 mb 0.00 in0.0 mm 0.00 in0.0 mm 0.00 in0.0 mm
12:37 AM 44.1°F6.7°C 41.2°F5.1°C 90% 4.5 mph NE7.2 kmh NE 7.8 mph12.6 kmh 29.03 in983.1 mb 0.00 in0.0 mm 0.00 in0.0 mm 0.00 in0.0 mm
12:36 AM 44.1°F6.7°C 41.2°F5.1°C 90% 4.2 mph NNE6.8 kmh NNE 7.8 mph12.6 kmh 29.03 in983.1 mb 0.00 in0.0 mm 0.00 in0.0 mm 0.00 in0.0 mm
12:35 AM 44.2°F6.8°C 41.3°F5.2°C 90% 4.4 mph NNE7.1 kmh NNE 7.8 mph12.6 kmh 29.03 in983.1 mb 0.00 in0.0 mm 0.00 in0.0 mm 0.00 in0.0 mm
12:34 AM 44.1°F6.7°C 41.2°F5.1°C 90% 4.6 mph NNE7.4 kmh NNE 7.8 mph12.6 kmh 29.03 in983.1 mb 0.00 in0.0 mm 0.00 in0.0 mm 0.00 in0.0 mm
12:33 AM 44.1°F6.7°C 41.2°F5.1°C 90% 4.4 mph NE7.1 kmh NE 7.8 mph12.6 kmh 29.03 in983.1 mb 0.00 in0.0 mm 0.00 in0.0 mm 0.00 in0.0 mm
12:32 AM 44.1°F6.7°C 41.2°F5.1°C 90% 4.3 mph NE6.9 kmh NE 7.8 mph12.6 kmh 29.03 in983.1 mb 0.00 in0.0 mm 0.00 in0.0 mm 0.00 in0.0 mm
12:31 AM 44.1°F6.7°C 41.2°F5.1°C 90% 4.0 mph NE6.4 kmh NE 7.8 mph12.6 kmh 29.03 in983.1 mb 0.00 in0.0 mm 0.00 in0.0 mm 0.00 in0.0 mm
12:30 AM 44.1°F6.7°C 41.2°F5.1°C 90% 3.4 mph NE5.5 kmh NE 7.8 mph12.6 kmh 29.03 in983.1 mb 0.00 in0.0 mm 0.00 in0.0 mm 0.00 in0.0 mm
12:29 AM 44.1°F6.7°C 41.2°F5.1°C 90% 3.5 mph NE5.6 kmh NE 9.1 mph14.6 kmh 29.03 in983.1 mb 0.00 in0.0 mm 0.00 in0.0 mm 0.00 in0.0 mm
12:28 AM 44.1°F6.7°C 40.8°F4.9°C 88% 5.2 mph NE8.4 kmh NE 9.1 mph14.6 kmh 29.03 in983.1 mb 0.00 in0.0 mm 0.00 in0.0 mm 0.00 in0.0 mm
12:27 AM 44.1°F6.7°C 40.8°F4.9°C 88% 5.9 mph NE9.5 kmh NE 9.1 mph14.6 kmh 29.03 in983.1 mb 0.00 in0.0 mm 0.00 in0.0 mm 0.00 in0.0 mm
12:26 AM 44.1°F6.7°C 40.8°F4.9°C 88% 5.4 mph NE8.7 kmh NE 9.1 mph14.6 kmh 29.03 in983.1 mb 0.00 in0.0 mm 0.00 in0.0 mm 0.00 in0.0 mm
12:25 AM 44.1°F6.7°C 40.8°F4.9°C 88% 4.7 mph NE7.6 kmh NE 9.1 mph14.6 kmh 29.03 in983.1 mb 0.00 in0.0 mm 0.00 in0.0 mm 0.00 in0.0 mm
12:24 AM 44.1°F6.7°C 40.8°F4.9°C 88% 4.9 mph NE7.9 kmh NE 9.1 mph14.6 kmh 29.03 in983.1 mb 0.00 in0.0 mm 0.00 in0.0 mm 0.00 in0.0 mm
12:23 AM 44.1°F6.7°C 40.8°F4.9°C 88% 5.2 mph NE8.4 kmh NE 9.1 mph14.6 kmh 29.03 in983.1 mb 0.00 in0.0 mm 0.00 in0.0 mm 0.00 in0.0 mm
12:22 AM 44.1°F6.7°C 40.8°F4.9°C 88% 5.2 mph NE8.4 kmh NE 9.1 mph14.6 kmh 29.03 in983.1 mb 0.00 in0.0 mm 0.00 in0.0 mm 0.00 in0.0 mm
12:21 AM 44.1°F6.7°C 40.5°F4.7°C 87% 4.7 mph NNE7.6 kmh NNE 9.1 mph14.6 kmh 29.03 in983.1 mb 0.00 in0.0 mm 0.00 in0.0 mm 0.00 in0.0 mm
12:20 AM 44.1°F6.7°C 40.5°F4.7°C 87% 4.6 mph NE7.4 kmh NE 9.1 mph14.6 kmh 29.03 in983.1 mb 0.00 in0.0 mm 0.00 in0.0 mm 0.00 in0.0 mm
12:19 AM 43.9°F6.6°C 40.3°F4.6°C 87% 5.2 mph NE8.4 kmh NE 9.1 mph14.6 kmh 29.03 in983.1 mb 0.00 in0.0 mm 0.00 in0.0 mm 0.00 in0.0 mm
12:18 AM 43.9°F6.6°C 40.3°F4.6°C 87% 5.1 mph NE8.2 kmh NE 9.1 mph14.6 kmh 29.03 in983.1 mb 0.00 in0.0 mm 0.00 in0.0 mm 0.00 in0.0 mm
12:17 AM 43.9°F6.6°C 40.3°F4.6°C 87% 4.8 mph NNE7.7 kmh NNE 9.1 mph14.6 kmh 29.03 in983.1 mb 0.00 in0.0 mm 0.00 in0.0 mm 0.00 in0.0 mm
12:16 AM 43.9°F6.6°C 40.3°F4.6°C 87% 4.5 mph N7.2 kmh N 9.1 mph14.6 kmh 29.03 in983.1 mb 0.00 in0.0 mm 0.00 in0.0 mm 0.00 in0.0 mm
12:15 AM 43.9°F6.6°C 40.3°F4.6°C 87% 4.5 mph NNE7.2 kmh NNE 9.1 mph14.6 kmh 29.03 in983.1 mb 0.00 in0.0 mm 0.00 in0.0 mm 0.00 in0.0 mm
12:14 AM 43.9°F6.6°C 40.3°F4.6°C 87% 5.2 mph NNE8.4 kmh NNE 9.1 mph14.6 kmh 29.03 in983.1 mb 0.00 in0.0 mm 0.00 in0.0 mm 0.00 in0.0 mm
12:13 AM 43.9°F6.6°C 40.0°F4.4°C 86% 6.0 mph N9.7 kmh N 9.1 mph14.6 kmh 29.03 in983.1 mb 0.00 in0.0 mm 0.00 in0.0 mm 0.00 in0.0 mm
12:12 AM 43.9°F6.6°C 40.0°F4.4°C 86% 5.6 mph N9.0 kmh N 9.1 mph14.6 kmh 29.03 in983.1 mb 0.00 in0.0 mm 0.00 in0.0 mm 0.00 in0.0 mm
12:11 AM 43.9°F6.6°C 40.0°F4.4°C 86% 4.7 mph NNE7.6 kmh NNE 8.4 mph13.5 kmh 29.03 in983.1 mb 0.00 in0.0 mm 0.00 in0.0 mm 0.00 in0.0 mm
12:10 AM 44.1°F6.7°C 40.1°F4.5°C 86% 4.4 mph NNE7.1 kmh NNE 8.4 mph13.5 kmh 29.03 in983.1 mb 0.00 in0.0 mm 0.00 in0.0 mm 0.00 in0.0 mm
12:09 AM 44.1°F6.7°C 40.1°F4.5°C 86% 4.4 mph NNE7.1 kmh NNE 8.4 mph13.5 kmh 29.03 in983.1 mb 0.00 in0.0 mm 0.00 in0.0 mm 0.00 in0.0 mm
12:08 AM 44.1°F6.7°C 40.1°F4.5°C 86% 4.4 mph N7.1 kmh N 8.4 mph13.5 kmh 29.03 in983.1 mb 0.00 in0.0 mm 0.00 in0.0 mm 0.00 in0.0 mm
12:07 AM 44.1°F6.7°C 40.1°F4.5°C 86% 4.4 mph N7.1 kmh N 8.4 mph13.5 kmh 29.03 in983.1 mb 0.00 in0.0 mm 0.00 in0.0 mm 0.00 in0.0 mm
12:06 AM 43.9°F6.6°C 40.0°F4.4°C 86% 4.2 mph N6.8 kmh N 8.4 mph13.5 kmh 29.03 in983.1 mb 0.00 in0.0 mm 0.00 in0.0 mm 0.00 in0.0 mm
12:05 AM 44.1°F6.7°C 40.2°F4.6°C 86% 4.3 mph N6.9 kmh N 8.4 mph13.5 kmh 29.03 in983.1 mb 0.00 in0.0 mm 0.00 in0.0 mm 0.00 in0.0 mm
12:04 AM 44.1°F6.7°C 39.8°F4.3°C 85% 4.7 mph NNE7.6 kmh NNE 8.4 mph13.5 kmh 29.03 in983.1 mb 0.00 in0.0 mm 0.00 in0.0 mm 0.00 in0.0 mm
12:03 AM 44.1°F6.7°C 39.8°F4.3°C 85% 4.9 mph NNE7.9 kmh NNE 8.4 mph13.5 kmh 29.03 in983.1 mb 0.00 in0.0 mm 0.00 in0.0 mm 0.00 in0.0 mm
12:02 AM 44.1°F6.7°C 39.8°F4.3°C 85% 3.0 mph NE4.8 kmh NE 7.8 mph12.6 kmh 29.03 in983.1 mb 0.00 in0.0 mm 0.00 in0.0 mm 0.00 in0.0 mm
12:01 AM 43.9°F6.6°C 39.6°F4.2°C 85% 3.7 mph NE6.0 kmh NE 7.8 mph12.6 kmh 29.03 in983.1 mb 0.00 in0.0 mm 0.00 in0.0 mm 0.00 in0.0 mm
12:00 AM 43.7°F6.5°C 39.4°F4.1°C 85% 4.5 mph NE7.2 kmh NE 7.8 mph12.6 kmh 29.03 in983.1 mb 0.00 in0.0 mm 0.00 in0.0 mm 0.00 in0.0 mm